<?xml version="1.0" encoding="UTF-8" standalone="no" ?>
<gpx xmlns="http://www.topografix.com/GPX/1/1" xmlns:xsi="http://www.w3.org/2001/XMLSchema-instance" xsi:schemaLocation="http://www.topografix.com/GPX/1/1 http://www.topografix.com/GPX/1/1/gpx.xsd" version="1.1" creator="VisuGPX - https://www.visugpx.com">
  <metadata>
    <name>Nantiat 25km .brksux</name>
    <desc><![CDATA[Randonnée UFOLEP de Nantiat, tracé de 25km]]></desc>
  </metadata>
  <trk>
    <name><![CDATA[Nantiat 25km .brksux_1]]></name>
    <trkseg>
      <trkpt lat="46.00377" lon="1.17478">
        <ele>330.7</ele>
        <time>2013-10-20T06:42:46Z</time>
      </trkpt>
      <trkpt lat="46.00377" lon="1.17478">
        <ele>392</ele>
        <time>2013-10-20T06:42:48Z</time>
      </trkpt>
      <trkpt lat="46.00368" lon="1.17489">
        <ele>389.2</ele>
        <time>2013-10-20T06:43:05Z</time>
      </trkpt>
      <trkpt lat="46.0035" lon="1.17481">
        <ele>389.1</ele>
        <time>2013-10-20T06:43:12Z</time>
      </trkpt>
      <trkpt lat="46.00333" lon="1.17484">
        <ele>388.6</ele>
        <time>2013-10-20T06:43:19Z</time>
      </trkpt>
      <trkpt lat="46.00331" lon="1.175">
        <ele>388.2</ele>
        <time>2013-10-20T06:43:26Z</time>
      </trkpt>
      <trkpt lat="46.0033" lon="1.175">
        <ele>388</ele>
        <time>2013-10-20T06:43:32Z</time>
      </trkpt>
      <trkpt lat="46.00325" lon="1.17484">
        <ele>386.6</ele>
        <time>2013-10-20T06:43:55Z</time>
      </trkpt>
      <trkpt lat="46.00325" lon="1.17455">
        <ele>386.2</ele>
        <time>2013-10-20T06:44:04Z</time>
      </trkpt>
      <trkpt lat="46.00328" lon="1.1743">
        <ele>387.8</ele>
        <time>2013-10-20T06:44:13Z</time>
      </trkpt>
      <trkpt lat="46.00334" lon="1.17398">
        <ele>389.6</ele>
        <time>2013-10-20T06:44:25Z</time>
      </trkpt>
      <trkpt lat="46.00335" lon="1.17373">
        <ele>389.4</ele>
        <time>2013-10-20T06:44:39Z</time>
      </trkpt>
      <trkpt lat="46.00339" lon="1.17338">
        <ele>391.8</ele>
        <time>2013-10-20T06:44:56Z</time>
      </trkpt>
      <trkpt lat="46.00328" lon="1.17323">
        <ele>393.6</ele>
        <time>2013-10-20T06:45:06Z</time>
      </trkpt>
      <trkpt lat="46.00312" lon="1.17325">
        <ele>395.7</ele>
        <time>2013-10-20T06:45:20Z</time>
      </trkpt>
      <trkpt lat="46.00284" lon="1.17324">
        <ele>395.8</ele>
        <time>2013-10-20T06:45:32Z</time>
      </trkpt>
      <trkpt lat="46.00264" lon="1.17312">
        <ele>397.1</ele>
        <time>2013-10-20T06:45:42Z</time>
      </trkpt>
      <trkpt lat="46.00246" lon="1.17303">
        <ele>396.6</ele>
        <time>2013-10-20T06:45:49Z</time>
      </trkpt>
      <trkpt lat="46.00228" lon="1.173">
        <ele>397</ele>
        <time>2013-10-20T06:45:55Z</time>
      </trkpt>
      <trkpt lat="46.00204" lon="1.17303">
        <ele>399</ele>
        <time>2013-10-20T06:46:03Z</time>
      </trkpt>
      <trkpt lat="46.00185" lon="1.17305">
        <ele>399.5</ele>
        <time>2013-10-20T06:46:07Z</time>
      </trkpt>
      <trkpt lat="46.00149" lon="1.17317">
        <ele>398.2</ele>
        <time>2013-10-20T06:46:13Z</time>
      </trkpt>
      <trkpt lat="46.00122" lon="1.17361">
        <ele>397.4</ele>
        <time>2013-10-20T06:46:19Z</time>
      </trkpt>
      <trkpt lat="46.00117" lon="1.17421">
        <ele>395.8</ele>
        <time>2013-10-20T06:46:25Z</time>
      </trkpt>
      <trkpt lat="46.00128" lon="1.17467">
        <ele>388.9</ele>
        <time>2013-10-20T06:46:32Z</time>
      </trkpt>
      <trkpt lat="46.00137" lon="1.17487">
        <ele>386</ele>
        <time>2013-10-20T06:46:40Z</time>
      </trkpt>
      <trkpt lat="46.00146" lon="1.175">
        <ele>386.1</ele>
        <time>2013-10-20T06:46:46Z</time>
      </trkpt>
      <trkpt lat="46.00155" lon="1.17517">
        <ele>386</ele>
        <time>2013-10-20T06:46:54Z</time>
      </trkpt>
      <trkpt lat="46.00172" lon="1.17534">
        <ele>384</ele>
        <time>2013-10-20T06:47:04Z</time>
      </trkpt>
      <trkpt lat="46.00194" lon="1.17551">
        <ele>380.7</ele>
        <time>2013-10-20T06:47:12Z</time>
      </trkpt>
      <trkpt lat="46.00211" lon="1.17574">
        <ele>379.8</ele>
        <time>2013-10-20T06:47:19Z</time>
      </trkpt>
      <trkpt lat="46.00226" lon="1.17594">
        <ele>379.5</ele>
        <time>2013-10-20T06:47:25Z</time>
      </trkpt>
      <trkpt lat="46.00241" lon="1.17616">
        <ele>379.9</ele>
        <time>2013-10-20T06:47:32Z</time>
      </trkpt>
      <trkpt lat="46.00254" lon="1.17638">
        <ele>381.1</ele>
        <time>2013-10-20T06:47:39Z</time>
      </trkpt>
      <trkpt lat="46.00272" lon="1.17649">
        <ele>381.1</ele>
        <time>2013-10-20T06:47:47Z</time>
      </trkpt>
      <trkpt lat="46.00296" lon="1.17637">
        <ele>382.6</ele>
        <time>2013-10-20T06:47:55Z</time>
      </trkpt>
      <trkpt lat="46.00317" lon="1.17637">
        <ele>383.4</ele>
        <time>2013-10-20T06:48:02Z</time>
      </trkpt>
      <trkpt lat="46.0033" lon="1.17641">
        <ele>383.6</ele>
        <time>2013-10-20T06:48:10Z</time>
      </trkpt>
      <trkpt lat="46.00354" lon="1.17645">
        <ele>384.3</ele>
        <time>2013-10-20T06:48:21Z</time>
      </trkpt>
      <trkpt lat="46.0037" lon="1.17655">
        <ele>385.2</ele>
        <time>2013-10-20T06:48:29Z</time>
      </trkpt>
      <trkpt lat="46.00388" lon="1.17671">
        <ele>385.6</ele>
        <time>2013-10-20T06:48:37Z</time>
      </trkpt>
      <trkpt lat="46.00409" lon="1.17692">
        <ele>386.2</ele>
        <time>2013-10-20T06:48:45Z</time>
      </trkpt>
      <trkpt lat="46.00428" lon="1.17709">
        <ele>386.4</ele>
        <time>2013-10-20T06:48:52Z</time>
      </trkpt>
      <trkpt lat="46.00442" lon="1.17686">
        <ele>386.8</ele>
        <time>2013-10-20T06:48:59Z</time>
      </trkpt>
      <trkpt lat="46.00455" lon="1.17654">
        <ele>387.2</ele>
        <time>2013-10-20T06:49:07Z</time>
      </trkpt>
      <trkpt lat="46.00475" lon="1.17658">
        <ele>389.4</ele>
        <time>2013-10-20T06:49:14Z</time>
      </trkpt>
      <trkpt lat="46.00495" lon="1.17663">
        <ele>390.2</ele>
        <time>2013-10-20T06:49:21Z</time>
      </trkpt>
      <trkpt lat="46.0052" lon="1.1767">
        <ele>390.5</ele>
        <time>2013-10-20T06:49:29Z</time>
      </trkpt>
      <trkpt lat="46.00543" lon="1.17684">
        <ele>390.1</ele>
        <time>2013-10-20T06:49:36Z</time>
      </trkpt>
      <trkpt lat="46.00553" lon="1.17701">
        <ele>389.4</ele>
        <time>2013-10-20T06:49:41Z</time>
      </trkpt>
      <trkpt lat="46.00555" lon="1.1774">
        <ele>389</ele>
        <time>2013-10-20T06:49:49Z</time>
      </trkpt>
      <trkpt lat="46.00548" lon="1.17772">
        <ele>389.2</ele>
        <time>2013-10-20T06:49:57Z</time>
      </trkpt>
      <trkpt lat="46.00543" lon="1.178">
        <ele>389</ele>
        <time>2013-10-20T06:50:04Z</time>
      </trkpt>
      <trkpt lat="46.00536" lon="1.17833">
        <ele>389</ele>
        <time>2013-10-20T06:50:12Z</time>
      </trkpt>
      <trkpt lat="46.00527" lon="1.17868">
        <ele>388.4</ele>
        <time>2013-10-20T06:50:20Z</time>
      </trkpt>
      <trkpt lat="46.00518" lon="1.17898">
        <ele>388</ele>
        <time>2013-10-20T06:50:28Z</time>
      </trkpt>
      <trkpt lat="46.00508" lon="1.17932">
        <ele>387.8</ele>
        <time>2013-10-20T06:50:36Z</time>
      </trkpt>
      <trkpt lat="46.00504" lon="1.17946">
        <ele>387.7</ele>
        <time>2013-10-20T06:50:39Z</time>
      </trkpt>
      <trkpt lat="46.00488" lon="1.17969">
        <ele>387.5</ele>
        <time>2013-10-20T06:50:45Z</time>
      </trkpt>
      <trkpt lat="46.0048" lon="1.17992">
        <ele>387.2</ele>
        <time>2013-10-20T06:50:51Z</time>
      </trkpt>
      <trkpt lat="46.00473" lon="1.18022">
        <ele>387.2</ele>
        <time>2013-10-20T06:51:00Z</time>
      </trkpt>
      <trkpt lat="46.00462" lon="1.18047">
        <ele>387.4</ele>
        <time>2013-10-20T06:51:08Z</time>
      </trkpt>
      <trkpt lat="46.00453" lon="1.18078">
        <ele>387.3</ele>
        <time>2013-10-20T06:51:17Z</time>
      </trkpt>
      <trkpt lat="46.00453" lon="1.18102">
        <ele>387.7</ele>
        <time>2013-10-20T06:51:24Z</time>
      </trkpt>
      <trkpt lat="46.00453" lon="1.18132">
        <ele>388.3</ele>
        <time>2013-10-20T06:51:33Z</time>
      </trkpt>
      <trkpt lat="46.00452" lon="1.18151">
        <ele>388.5</ele>
        <time>2013-10-20T06:51:38Z</time>
      </trkpt>
      <trkpt lat="46.00449" lon="1.18194">
        <ele>389.6</ele>
        <time>2013-10-20T06:51:45Z</time>
      </trkpt>
      <trkpt lat="46.00447" lon="1.18201">
        <ele>389.9</ele>
        <time>2013-10-20T06:51:49Z</time>
      </trkpt>
      <trkpt lat="46.00445" lon="1.18204">
        <ele>390.7</ele>
        <time>2013-10-20T06:51:56Z</time>
      </trkpt>
      <trkpt lat="46.00446" lon="1.18226">
        <ele>392.3</ele>
        <time>2013-10-20T06:52:22Z</time>
      </trkpt>
      <trkpt lat="46.00445" lon="1.18241">
        <ele>392.8</ele>
        <time>2013-10-20T06:52:29Z</time>
      </trkpt>
      <trkpt lat="46.00436" lon="1.18265">
        <ele>393.2</ele>
        <time>2013-10-20T06:52:37Z</time>
      </trkpt>
      <trkpt lat="46.00423" lon="1.18285">
        <ele>394.3</ele>
        <time>2013-10-20T06:52:43Z</time>
      </trkpt>
      <trkpt lat="46.00407" lon="1.18307">
        <ele>395.6</ele>
        <time>2013-10-20T06:52:51Z</time>
      </trkpt>
      <trkpt lat="46.00401" lon="1.18322">
        <ele>396.6</ele>
        <time>2013-10-20T06:52:56Z</time>
      </trkpt>
      <trkpt lat="46.00389" lon="1.18346">
        <ele>398.5</ele>
        <time>2013-10-20T06:53:05Z</time>
      </trkpt>
      <trkpt lat="46.00381" lon="1.18363">
        <ele>400.9</ele>
        <time>2013-10-20T06:53:12Z</time>
      </trkpt>
      <trkpt lat="46.00364" lon="1.18386">
        <ele>403.9</ele>
        <time>2013-10-20T06:53:22Z</time>
      </trkpt>
      <trkpt lat="46.00356" lon="1.18401">
        <ele>405.4</ele>
        <time>2013-10-20T06:53:27Z</time>
      </trkpt>
      <trkpt lat="46.00349" lon="1.18415">
        <ele>406.1</ele>
        <time>2013-10-20T06:53:31Z</time>
      </trkpt>
      <trkpt lat="46.00338" lon="1.18441">
        <ele>403.5</ele>
        <time>2013-10-20T06:53:39Z</time>
      </trkpt>
      <trkpt lat="46.00318" lon="1.18477">
        <ele>406.4</ele>
        <time>2013-10-20T06:53:49Z</time>
      </trkpt>
      <trkpt lat="46.00311" lon="1.18504">
        <ele>406.5</ele>
        <time>2013-10-20T06:53:55Z</time>
      </trkpt>
      <trkpt lat="46.00319" lon="1.18528">
        <ele>409.4</ele>
        <time>2013-10-20T06:54:03Z</time>
      </trkpt>
      <trkpt lat="46.00329" lon="1.18535">
        <ele>410.3</ele>
        <time>2013-10-20T06:54:11Z</time>
      </trkpt>
      <trkpt lat="46.00343" lon="1.18538">
        <ele>411.9</ele>
        <time>2013-10-20T06:54:20Z</time>
      </trkpt>
      <trkpt lat="46.00343" lon="1.18538">
        <ele>411.9</ele>
        <time>2013-10-20T06:54:25Z</time>
      </trkpt>
      <trkpt lat="46.00348" lon="1.1854">
        <ele>413.6</ele>
        <time>2013-10-20T06:54:26Z</time>
      </trkpt>
      <trkpt lat="46.00374" lon="1.1855">
        <ele>411.5</ele>
        <time>2013-10-20T06:55:15Z</time>
      </trkpt>
      <trkpt lat="46.00378" lon="1.18546">
        <ele>409.1</ele>
        <time>2013-10-20T06:55:21Z</time>
      </trkpt>
      <trkpt lat="46.00379" lon="1.18543">
        <ele>407.3</ele>
        <time>2013-10-20T06:55:29Z</time>
      </trkpt>
      <trkpt lat="46.00391" lon="1.18531">
        <ele>406.3</ele>
        <time>2013-10-20T06:56:10Z</time>
      </trkpt>
      <trkpt lat="46.0042" lon="1.18513">
        <ele>402</ele>
        <time>2013-10-20T06:56:59Z</time>
      </trkpt>
      <trkpt lat="46.00433" lon="1.18491">
        <ele>401.9</ele>
        <time>2013-10-20T06:57:04Z</time>
      </trkpt>
      <trkpt lat="46.00437" lon="1.1849">
        <ele>401.1</ele>
        <time>2013-10-20T06:57:11Z</time>
      </trkpt>
      <trkpt lat="46.0045" lon="1.18486">
        <ele>400.1</ele>
        <time>2013-10-20T06:58:56Z</time>
      </trkpt>
      <trkpt lat="46.00467" lon="1.18473">
        <ele>397.4</ele>
        <time>2013-10-20T06:59:06Z</time>
      </trkpt>
      <trkpt lat="46.00482" lon="1.18414">
        <ele>395.3</ele>
        <time>2013-10-20T06:59:16Z</time>
      </trkpt>
      <trkpt lat="46.00506" lon="1.18394">
        <ele>395.1</ele>
        <time>2013-10-20T06:59:26Z</time>
      </trkpt>
      <trkpt lat="46.00523" lon="1.18385">
        <ele>394.6</ele>
        <time>2013-10-20T06:59:34Z</time>
      </trkpt>
      <trkpt lat="46.00531" lon="1.18375">
        <ele>394.4</ele>
        <time>2013-10-20T06:59:41Z</time>
      </trkpt>
      <trkpt lat="46.00544" lon="1.18362">
        <ele>394</ele>
        <time>2013-10-20T06:59:48Z</time>
      </trkpt>
      <trkpt lat="46.0055" lon="1.1836">
        <ele>393.7</ele>
        <time>2013-10-20T07:00:05Z</time>
      </trkpt>
      <trkpt lat="46.00564" lon="1.18357">
        <ele>395.1</ele>
        <time>2013-10-20T07:00:11Z</time>
      </trkpt>
      <trkpt lat="46.00582" lon="1.18358">
        <ele>394.4</ele>
        <time>2013-10-20T07:00:17Z</time>
      </trkpt>
      <trkpt lat="46.0061" lon="1.18353">
        <ele>394.9</ele>
        <time>2013-10-20T07:00:25Z</time>
      </trkpt>
      <trkpt lat="46.00629" lon="1.18347">
        <ele>395.3</ele>
        <time>2013-10-20T07:00:31Z</time>
      </trkpt>
      <trkpt lat="46.00646" lon="1.18352">
        <ele>394</ele>
        <time>2013-10-20T07:00:36Z</time>
      </trkpt>
      <trkpt lat="46.00661" lon="1.18357">
        <ele>394.2</ele>
        <time>2013-10-20T07:00:45Z</time>
      </trkpt>
      <trkpt lat="46.00665" lon="1.18362">
        <ele>395.1</ele>
        <time>2013-10-20T07:00:49Z</time>
      </trkpt>
      <trkpt lat="46.00674" lon="1.18365">
        <ele>392.1</ele>
        <time>2013-10-20T07:01:02Z</time>
      </trkpt>
      <trkpt lat="46.00673" lon="1.18403">
        <ele>391</ele>
        <time>2013-10-20T07:01:14Z</time>
      </trkpt>
      <trkpt lat="46.0067" lon="1.18419">
        <ele>392.1</ele>
        <time>2013-10-20T07:01:22Z</time>
      </trkpt>
      <trkpt lat="46.0068" lon="1.1843">
        <ele>393.9</ele>
        <time>2013-10-20T07:01:38Z</time>
      </trkpt>
      <trkpt lat="46.00698" lon="1.18467">
        <ele>392.1</ele>
        <time>2013-10-20T07:02:56Z</time>
      </trkpt>
      <trkpt lat="46.00708" lon="1.18479">
        <ele>394.2</ele>
        <time>2013-10-20T07:03:13Z</time>
      </trkpt>
      <trkpt lat="46.00734" lon="1.18459">
        <ele>396.1</ele>
        <time>2013-10-20T07:03:28Z</time>
      </trkpt>
      <trkpt lat="46.00745" lon="1.1845">
        <ele>396</ele>
        <time>2013-10-20T07:03:35Z</time>
      </trkpt>
      <trkpt lat="46.00757" lon="1.18422">
        <ele>392.5</ele>
        <time>2013-10-20T07:03:47Z</time>
      </trkpt>
      <trkpt lat="46.00758" lon="1.18416">
        <ele>392.8</ele>
        <time>2013-10-20T07:03:54Z</time>
      </trkpt>
      <trkpt lat="46.0076" lon="1.18411">
        <ele>393.2</ele>
        <time>2013-10-20T07:04:00Z</time>
      </trkpt>
      <trkpt lat="46.00794" lon="1.1837">
        <ele>390.3</ele>
        <time>2013-10-20T07:05:01Z</time>
      </trkpt>
      <trkpt lat="46.00808" lon="1.18364">
        <ele>390.6</ele>
        <time>2013-10-20T07:05:10Z</time>
      </trkpt>
      <trkpt lat="46.00841" lon="1.18321">
        <ele>384.8</ele>
        <time>2013-10-20T07:05:21Z</time>
      </trkpt>
      <trkpt lat="46.00861" lon="1.18318">
        <ele>381.2</ele>
        <time>2013-10-20T07:05:28Z</time>
      </trkpt>
      <trkpt lat="46.00887" lon="1.18312">
        <ele>380.4</ele>
        <time>2013-10-20T07:05:37Z</time>
      </trkpt>
      <trkpt lat="46.00915" lon="1.18305">
        <ele>380.8</ele>
        <time>2013-10-20T07:05:45Z</time>
      </trkpt>
      <trkpt lat="46.00933" lon="1.18312">
        <ele>381.3</ele>
        <time>2013-10-20T07:05:50Z</time>
      </trkpt>
      <trkpt lat="46.00957" lon="1.18325">
        <ele>382.8</ele>
        <time>2013-10-20T07:05:58Z</time>
      </trkpt>
      <trkpt lat="46.00975" lon="1.18322">
        <ele>384.3</ele>
        <time>2013-10-20T07:06:06Z</time>
      </trkpt>
      <trkpt lat="46.00984" lon="1.18326">
        <ele>386.2</ele>
        <time>2013-10-20T07:06:15Z</time>
      </trkpt>
      <trkpt lat="46.01032" lon="1.18314">
        <ele>388.7</ele>
        <time>2013-10-20T07:06:31Z</time>
      </trkpt>
      <trkpt lat="46.01064" lon="1.18325">
        <ele>389.6</ele>
        <time>2013-10-20T07:06:38Z</time>
      </trkpt>
      <trkpt lat="46.01083" lon="1.1834">
        <ele>384.2</ele>
        <time>2013-10-20T07:06:44Z</time>
      </trkpt>
      <trkpt lat="46.01096" lon="1.18348">
        <ele>381.9</ele>
        <time>2013-10-20T07:06:51Z</time>
      </trkpt>
      <trkpt lat="46.01103" lon="1.18365">
        <ele>382.8</ele>
        <time>2013-10-20T07:07:02Z</time>
      </trkpt>
      <trkpt lat="46.01112" lon="1.18382">
        <ele>386</ele>
        <time>2013-10-20T07:07:13Z</time>
      </trkpt>
      <trkpt lat="46.01119" lon="1.18397">
        <ele>388.1</ele>
        <time>2013-10-20T07:07:29Z</time>
      </trkpt>
      <trkpt lat="46.0113" lon="1.18414">
        <ele>393.8</ele>
        <time>2013-10-20T07:07:47Z</time>
      </trkpt>
      <trkpt lat="46.01147" lon="1.18447">
        <ele>392.3</ele>
        <time>2013-10-20T07:08:20Z</time>
      </trkpt>
      <trkpt lat="46.01156" lon="1.1847">
        <ele>391.6</ele>
        <time>2013-10-20T07:08:29Z</time>
      </trkpt>
      <trkpt lat="46.01192" lon="1.18475">
        <ele>392.1</ele>
        <time>2013-10-20T07:08:36Z</time>
      </trkpt>
      <trkpt lat="46.0122" lon="1.18483">
        <ele>391</ele>
        <time>2013-10-20T07:08:41Z</time>
      </trkpt>
      <trkpt lat="46.01256" lon="1.18491">
        <ele>389</ele>
        <time>2013-10-20T07:08:47Z</time>
      </trkpt>
      <trkpt lat="46.01293" lon="1.18501">
        <ele>385.2</ele>
        <time>2013-10-20T07:08:52Z</time>
      </trkpt>
      <trkpt lat="46.0133" lon="1.18501">
        <ele>381.4</ele>
        <time>2013-10-20T07:08:58Z</time>
      </trkpt>
      <trkpt lat="46.0135" lon="1.18504">
        <ele>377.6</ele>
        <time>2013-10-20T07:09:03Z</time>
      </trkpt>
      <trkpt lat="46.0136" lon="1.18504">
        <ele>376.2</ele>
        <time>2013-10-20T07:09:06Z</time>
      </trkpt>
      <trkpt lat="46.01372" lon="1.18505">
        <ele>376.2</ele>
        <time>2013-10-20T07:09:13Z</time>
      </trkpt>
      <trkpt lat="46.01377" lon="1.18505">
        <ele>375.5</ele>
        <time>2013-10-20T07:09:16Z</time>
      </trkpt>
      <trkpt lat="46.01379" lon="1.185">
        <ele>375</ele>
        <time>2013-10-20T07:09:22Z</time>
      </trkpt>
      <trkpt lat="46.01399" lon="1.18543">
        <ele>377.7</ele>
        <time>2013-10-20T07:11:15Z</time>
      </trkpt>
      <trkpt lat="46.01415" lon="1.18563">
        <ele>377.4</ele>
        <time>2013-10-20T07:11:26Z</time>
      </trkpt>
      <trkpt lat="46.01439" lon="1.18573">
        <ele>376.3</ele>
        <time>2013-10-20T07:11:35Z</time>
      </trkpt>
      <trkpt lat="46.01453" lon="1.18588">
        <ele>377.3</ele>
        <time>2013-10-20T07:11:41Z</time>
      </trkpt>
      <trkpt lat="46.01477" lon="1.18593">
        <ele>377.6</ele>
        <time>2013-10-20T07:11:50Z</time>
      </trkpt>
      <trkpt lat="46.0149" lon="1.18605">
        <ele>378.5</ele>
        <time>2013-10-20T07:11:58Z</time>
      </trkpt>
      <trkpt lat="46.0149" lon="1.18605">
        <ele>378.5</ele>
        <time>2013-10-20T07:12:04Z</time>
      </trkpt>
      <trkpt lat="46.0149" lon="1.18605">
        <ele>378.5</ele>
        <time>2013-10-20T07:12:05Z</time>
      </trkpt>
      <trkpt lat="46.01511" lon="1.18625">
        <ele>382.7</ele>
        <time>2013-10-20T07:12:20Z</time>
      </trkpt>
      <trkpt lat="46.01512" lon="1.1863">
        <ele>383.5</ele>
        <time>2013-10-20T07:12:22Z</time>
      </trkpt>
      <trkpt lat="46.01513" lon="1.18632">
        <ele>383.6</ele>
        <time>2013-10-20T07:12:29Z</time>
      </trkpt>
      <trkpt lat="46.01544" lon="1.18644">
        <ele>386.8</ele>
        <time>2013-10-20T07:12:46Z</time>
      </trkpt>
      <trkpt lat="46.01566" lon="1.18638">
        <ele>388</ele>
        <time>2013-10-20T07:12:53Z</time>
      </trkpt>
      <trkpt lat="46.01579" lon="1.18611">
        <ele>384</ele>
        <time>2013-10-20T07:13:00Z</time>
      </trkpt>
      <trkpt lat="46.01592" lon="1.18565">
        <ele>378.2</ele>
        <time>2013-10-20T07:13:05Z</time>
      </trkpt>
      <trkpt lat="46.01641" lon="1.18529">
        <ele>371.3</ele>
        <time>2013-10-20T07:13:11Z</time>
      </trkpt>
      <trkpt lat="46.01666" lon="1.18485">
        <ele>370.1</ele>
        <time>2013-10-20T07:13:17Z</time>
      </trkpt>
      <trkpt lat="46.01673" lon="1.18439">
        <ele>368</ele>
        <time>2013-10-20T07:13:23Z</time>
      </trkpt>
      <trkpt lat="46.01678" lon="1.18414">
        <ele>366.8</ele>
        <time>2013-10-20T07:13:26Z</time>
      </trkpt>
      <trkpt lat="46.01688" lon="1.18366">
        <ele>367</ele>
        <time>2013-10-20T07:13:32Z</time>
      </trkpt>
      <trkpt lat="46.01707" lon="1.18335">
        <ele>366.7</ele>
        <time>2013-10-20T07:13:38Z</time>
      </trkpt>
      <trkpt lat="46.01729" lon="1.18317">
        <ele>366.7</ele>
        <time>2013-10-20T07:13:44Z</time>
      </trkpt>
      <trkpt lat="46.0175" lon="1.18297">
        <ele>367.2</ele>
        <time>2013-10-20T07:13:49Z</time>
      </trkpt>
      <trkpt lat="46.01778" lon="1.18287">
        <ele>366.2</ele>
        <time>2013-10-20T07:13:55Z</time>
      </trkpt>
      <trkpt lat="46.01811" lon="1.18284">
        <ele>365.3</ele>
        <time>2013-10-20T07:14:01Z</time>
      </trkpt>
      <trkpt lat="46.01832" lon="1.18279">
        <ele>366</ele>
        <time>2013-10-20T07:14:08Z</time>
      </trkpt>
      <trkpt lat="46.01874" lon="1.18274">
        <ele>361.7</ele>
        <time>2013-10-20T07:14:15Z</time>
      </trkpt>
      <trkpt lat="46.01899" lon="1.18276">
        <ele>359.4</ele>
        <time>2013-10-20T07:14:20Z</time>
      </trkpt>
      <trkpt lat="46.01918" lon="1.18277">
        <ele>357.8</ele>
        <time>2013-10-20T07:14:28Z</time>
      </trkpt>
      <trkpt lat="46.01932" lon="1.18279">
        <ele>356.7</ele>
        <time>2013-10-20T07:14:33Z</time>
      </trkpt>
      <trkpt lat="46.01946" lon="1.18284">
        <ele>354.2</ele>
        <time>2013-10-20T07:14:41Z</time>
      </trkpt>
      <trkpt lat="46.01949" lon="1.18284">
        <ele>354.5</ele>
        <time>2013-10-20T07:14:44Z</time>
      </trkpt>
      <trkpt lat="46.01949" lon="1.18284">
        <ele>354.5</ele>
        <time>2013-10-20T07:14:52Z</time>
      </trkpt>
      <trkpt lat="46.01978" lon="1.18195">
        <ele>349.7</ele>
        <time>2013-10-20T07:16:56Z</time>
      </trkpt>
      <trkpt lat="46.01978" lon="1.18195">
        <ele>349.7</ele>
        <time>2013-10-20T07:17:03Z</time>
      </trkpt>
      <trkpt lat="46.01978" lon="1.18195">
        <ele>349.7</ele>
        <time>2013-10-20T07:17:04Z</time>
      </trkpt>
      <trkpt lat="46.02007" lon="1.18211">
        <ele>348.6</ele>
        <time>2013-10-20T07:18:09Z</time>
      </trkpt>
      <trkpt lat="46.02024" lon="1.18231">
        <ele>345.2</ele>
        <time>2013-10-20T07:18:16Z</time>
      </trkpt>
      <trkpt lat="46.02031" lon="1.1824">
        <ele>345.9</ele>
        <time>2013-10-20T07:18:24Z</time>
      </trkpt>
      <trkpt lat="46.02083" lon="1.18258">
        <ele>347.9</ele>
        <time>2013-10-20T07:18:38Z</time>
      </trkpt>
      <trkpt lat="46.02114" lon="1.1825">
        <ele>348.3</ele>
        <time>2013-10-20T07:18:46Z</time>
      </trkpt>
      <trkpt lat="46.0214" lon="1.18258">
        <ele>348</ele>
        <time>2013-10-20T07:18:53Z</time>
      </trkpt>
      <trkpt lat="46.0216" lon="1.18261">
        <ele>346</ele>
        <time>2013-10-20T07:18:59Z</time>
      </trkpt>
      <trkpt lat="46.02192" lon="1.1827">
        <ele>343.7</ele>
        <time>2013-10-20T07:19:07Z</time>
      </trkpt>
      <trkpt lat="46.02207" lon="1.1829">
        <ele>341.1</ele>
        <time>2013-10-20T07:19:14Z</time>
      </trkpt>
      <trkpt lat="46.0222" lon="1.1832">
        <ele>336</ele>
        <time>2013-10-20T07:19:22Z</time>
      </trkpt>
      <trkpt lat="46.02221" lon="1.18343">
        <ele>335.2</ele>
        <time>2013-10-20T07:19:30Z</time>
      </trkpt>
      <trkpt lat="46.0222" lon="1.18378">
        <ele>338.3</ele>
        <time>2013-10-20T07:19:43Z</time>
      </trkpt>
      <trkpt lat="46.02216" lon="1.18398">
        <ele>340.3</ele>
        <time>2013-10-20T07:19:51Z</time>
      </trkpt>
      <trkpt lat="46.02212" lon="1.18423">
        <ele>340.8</ele>
        <time>2013-10-20T07:20:00Z</time>
      </trkpt>
      <trkpt lat="46.02205" lon="1.18444">
        <ele>340.6</ele>
        <time>2013-10-20T07:20:08Z</time>
      </trkpt>
      <trkpt lat="46.02199" lon="1.18462">
        <ele>338.6</ele>
        <time>2013-10-20T07:20:15Z</time>
      </trkpt>
      <trkpt lat="46.02192" lon="1.18489">
        <ele>339.1</ele>
        <time>2013-10-20T07:20:24Z</time>
      </trkpt>
      <trkpt lat="46.02184" lon="1.18518">
        <ele>343.4</ele>
        <time>2013-10-20T07:20:34Z</time>
      </trkpt>
      <trkpt lat="46.0217" lon="1.18533">
        <ele>341</ele>
        <time>2013-10-20T07:20:44Z</time>
      </trkpt>
      <trkpt lat="46.02155" lon="1.18559">
        <ele>341.2</ele>
        <time>2013-10-20T07:20:52Z</time>
      </trkpt>
      <trkpt lat="46.0215" lon="1.18572">
        <ele>343.9</ele>
        <time>2013-10-20T07:20:58Z</time>
      </trkpt>
      <trkpt lat="46.02137" lon="1.186">
        <ele>345.2</ele>
        <time>2013-10-20T07:21:10Z</time>
      </trkpt>
      <trkpt lat="46.02125" lon="1.18633">
        <ele>345.7</ele>
        <time>2013-10-20T07:21:22Z</time>
      </trkpt>
      <trkpt lat="46.0212" lon="1.18654">
        <ele>345.5</ele>
        <time>2013-10-20T07:21:29Z</time>
      </trkpt>
      <trkpt lat="46.02113" lon="1.18675">
        <ele>347.8</ele>
        <time>2013-10-20T07:21:36Z</time>
      </trkpt>
      <trkpt lat="46.02097" lon="1.18695">
        <ele>349</ele>
        <time>2013-10-20T07:21:44Z</time>
      </trkpt>
      <trkpt lat="46.02104" lon="1.18716">
        <ele>347.8</ele>
        <time>2013-10-20T07:21:53Z</time>
      </trkpt>
      <trkpt lat="46.02104" lon="1.18731">
        <ele>347.5</ele>
        <time>2013-10-20T07:22:01Z</time>
      </trkpt>
      <trkpt lat="46.02107" lon="1.18764">
        <ele>346</ele>
        <time>2013-10-20T07:22:10Z</time>
      </trkpt>
      <trkpt lat="46.02104" lon="1.1879">
        <ele>346.1</ele>
        <time>2013-10-20T07:22:16Z</time>
      </trkpt>
      <trkpt lat="46.02087" lon="1.18812">
        <ele>347.5</ele>
        <time>2013-10-20T07:22:23Z</time>
      </trkpt>
      <trkpt lat="46.0207" lon="1.18827">
        <ele>346.4</ele>
        <time>2013-10-20T07:22:30Z</time>
      </trkpt>
      <trkpt lat="46.02058" lon="1.18838">
        <ele>347.8</ele>
        <time>2013-10-20T07:22:35Z</time>
      </trkpt>
      <trkpt lat="46.02044" lon="1.1885">
        <ele>349.2</ele>
        <time>2013-10-20T07:22:44Z</time>
      </trkpt>
      <trkpt lat="46.02032" lon="1.1886">
        <ele>351</ele>
        <time>2013-10-20T07:22:49Z</time>
      </trkpt>
      <trkpt lat="46.02016" lon="1.18874">
        <ele>353</ele>
        <time>2013-10-20T07:22:56Z</time>
      </trkpt>
      <trkpt lat="46.01998" lon="1.18888">
        <ele>355.2</ele>
        <time>2013-10-20T07:23:04Z</time>
      </trkpt>
      <trkpt lat="46.01982" lon="1.18909">
        <ele>358.9</ele>
        <time>2013-10-20T07:23:16Z</time>
      </trkpt>
      <trkpt lat="46.01965" lon="1.18937">
        <ele>361.2</ele>
        <time>2013-10-20T07:23:25Z</time>
      </trkpt>
      <trkpt lat="46.01948" lon="1.18965">
        <ele>366.3</ele>
        <time>2013-10-20T07:23:34Z</time>
      </trkpt>
      <trkpt lat="46.01947" lon="1.18983">
        <ele>367.6</ele>
        <time>2013-10-20T07:23:39Z</time>
      </trkpt>
      <trkpt lat="46.0194" lon="1.19013">
        <ele>369.5</ele>
        <time>2013-10-20T07:23:49Z</time>
      </trkpt>
      <trkpt lat="46.01933" lon="1.19032">
        <ele>371.4</ele>
        <time>2013-10-20T07:23:55Z</time>
      </trkpt>
      <trkpt lat="46.0193" lon="1.19056">
        <ele>372.5</ele>
        <time>2013-10-20T07:24:03Z</time>
      </trkpt>
      <trkpt lat="46.01931" lon="1.19086">
        <ele>373.4</ele>
        <time>2013-10-20T07:24:13Z</time>
      </trkpt>
      <trkpt lat="46.01922" lon="1.19133">
        <ele>375.6</ele>
        <time>2013-10-20T07:24:26Z</time>
      </trkpt>
      <trkpt lat="46.01923" lon="1.19161">
        <ele>375.6</ele>
        <time>2013-10-20T07:24:32Z</time>
      </trkpt>
      <trkpt lat="46.01917" lon="1.19196">
        <ele>373.6</ele>
        <time>2013-10-20T07:24:39Z</time>
      </trkpt>
      <trkpt lat="46.01897" lon="1.19227">
        <ele>374.6</ele>
        <time>2013-10-20T07:24:46Z</time>
      </trkpt>
      <trkpt lat="46.01876" lon="1.19255">
        <ele>376.1</ele>
        <time>2013-10-20T07:24:52Z</time>
      </trkpt>
      <trkpt lat="46.01873" lon="1.19289">
        <ele>372.7</ele>
        <time>2013-10-20T07:24:58Z</time>
      </trkpt>
      <trkpt lat="46.01851" lon="1.19345">
        <ele>368.4</ele>
        <time>2013-10-20T07:25:04Z</time>
      </trkpt>
      <trkpt lat="46.01888" lon="1.19387">
        <ele>363.7</ele>
        <time>2013-10-20T07:25:10Z</time>
      </trkpt>
      <trkpt lat="46.01926" lon="1.19412">
        <ele>356.7</ele>
        <time>2013-10-20T07:25:15Z</time>
      </trkpt>
      <trkpt lat="46.01953" lon="1.1943">
        <ele>351.6</ele>
        <time>2013-10-20T07:25:21Z</time>
      </trkpt>
      <trkpt lat="46.01964" lon="1.1944">
        <ele>350.1</ele>
        <time>2013-10-20T07:25:24Z</time>
      </trkpt>
      <trkpt lat="46.0198" lon="1.19455">
        <ele>349.5</ele>
        <time>2013-10-20T07:25:29Z</time>
      </trkpt>
      <trkpt lat="46.01989" lon="1.19487">
        <ele>350.4</ele>
        <time>2013-10-20T07:25:36Z</time>
      </trkpt>
      <trkpt lat="46.01995" lon="1.19511">
        <ele>350.7</ele>
        <time>2013-10-20T07:25:41Z</time>
      </trkpt>
      <trkpt lat="46.02005" lon="1.19526">
        <ele>352</ele>
        <time>2013-10-20T07:25:48Z</time>
      </trkpt>
      <trkpt lat="46.02018" lon="1.19578">
        <ele>355.9</ele>
        <time>2013-10-20T07:26:01Z</time>
      </trkpt>
      <trkpt lat="46.02032" lon="1.19606">
        <ele>356.6</ele>
        <time>2013-10-20T07:26:08Z</time>
      </trkpt>
      <trkpt lat="46.02044" lon="1.19628">
        <ele>357.6</ele>
        <time>2013-10-20T07:26:14Z</time>
      </trkpt>
      <trkpt lat="46.02048" lon="1.19669">
        <ele>356.8</ele>
        <time>2013-10-20T07:26:23Z</time>
      </trkpt>
      <trkpt lat="46.02053" lon="1.197">
        <ele>357.7</ele>
        <time>2013-10-20T07:26:29Z</time>
      </trkpt>
      <trkpt lat="46.02055" lon="1.19718">
        <ele>358.4</ele>
        <time>2013-10-20T07:26:34Z</time>
      </trkpt>
      <trkpt lat="46.02059" lon="1.19749">
        <ele>358.6</ele>
        <time>2013-10-20T07:26:43Z</time>
      </trkpt>
      <trkpt lat="46.02074" lon="1.19767">
        <ele>356.7</ele>
        <time>2013-10-20T07:26:52Z</time>
      </trkpt>
      <trkpt lat="46.02084" lon="1.19767">
        <ele>356</ele>
        <time>2013-10-20T07:26:57Z</time>
      </trkpt>
      <trkpt lat="46.02094" lon="1.19773">
        <ele>353</ele>
        <time>2013-10-20T07:27:03Z</time>
      </trkpt>
      <trkpt lat="46.02096" lon="1.19778">
        <ele>352.7</ele>
        <time>2013-10-20T07:27:09Z</time>
      </trkpt>
      <trkpt lat="46.02081" lon="1.19796">
        <ele>351.7</ele>
        <time>2013-10-20T07:27:45Z</time>
      </trkpt>
      <trkpt lat="46.02065" lon="1.19823">
        <ele>350.3</ele>
        <time>2013-10-20T07:27:56Z</time>
      </trkpt>
      <trkpt lat="46.02063" lon="1.19851">
        <ele>349.5</ele>
        <time>2013-10-20T07:28:07Z</time>
      </trkpt>
      <trkpt lat="46.02068" lon="1.19883">
        <ele>348.9</ele>
        <time>2013-10-20T07:28:19Z</time>
      </trkpt>
      <trkpt lat="46.02076" lon="1.19904">
        <ele>349.4</ele>
        <time>2013-10-20T07:28:28Z</time>
      </trkpt>
      <trkpt lat="46.02086" lon="1.19929">
        <ele>350.5</ele>
        <time>2013-10-20T07:28:39Z</time>
      </trkpt>
      <trkpt lat="46.02095" lon="1.19957">
        <ele>350.7</ele>
        <time>2013-10-20T07:28:50Z</time>
      </trkpt>
      <trkpt lat="46.02104" lon="1.19984">
        <ele>351.9</ele>
        <time>2013-10-20T07:29:00Z</time>
      </trkpt>
      <trkpt lat="46.02103" lon="1.20007">
        <ele>352.6</ele>
        <time>2013-10-20T07:29:08Z</time>
      </trkpt>
      <trkpt lat="46.02096" lon="1.2003">
        <ele>352.1</ele>
        <time>2013-10-20T07:29:16Z</time>
      </trkpt>
      <trkpt lat="46.02099" lon="1.20056">
        <ele>354.3</ele>
        <time>2013-10-20T07:29:25Z</time>
      </trkpt>
      <trkpt lat="46.02122" lon="1.20082">
        <ele>352.6</ele>
        <time>2013-10-20T07:29:36Z</time>
      </trkpt>
      <trkpt lat="46.0213" lon="1.20112">
        <ele>352.9</ele>
        <time>2013-10-20T07:29:43Z</time>
      </trkpt>
      <trkpt lat="46.02131" lon="1.20141">
        <ele>354.2</ele>
        <time>2013-10-20T07:29:50Z</time>
      </trkpt>
      <trkpt lat="46.0213" lon="1.20168">
        <ele>355.6</ele>
        <time>2013-10-20T07:29:57Z</time>
      </trkpt>
      <trkpt lat="46.02126" lon="1.20195">
        <ele>357.7</ele>
        <time>2013-10-20T07:30:05Z</time>
      </trkpt>
      <trkpt lat="46.02122" lon="1.20217">
        <ele>359.4</ele>
        <time>2013-10-20T07:30:12Z</time>
      </trkpt>
      <trkpt lat="46.02115" lon="1.20243">
        <ele>362.5</ele>
        <time>2013-10-20T07:30:21Z</time>
      </trkpt>
      <trkpt lat="46.02107" lon="1.20277">
        <ele>363.2</ele>
        <time>2013-10-20T07:30:32Z</time>
      </trkpt>
      <trkpt lat="46.02077" lon="1.20311">
        <ele>363.4</ele>
        <time>2013-10-20T07:30:40Z</time>
      </trkpt>
      <trkpt lat="46.02034" lon="1.2036">
        <ele>361.9</ele>
        <time>2013-10-20T07:30:46Z</time>
      </trkpt>
      <trkpt lat="46.02001" lon="1.2039">
        <ele>363.3</ele>
        <time>2013-10-20T07:30:52Z</time>
      </trkpt>
      <trkpt lat="46.01984" lon="1.20417">
        <ele>363.9</ele>
        <time>2013-10-20T07:30:57Z</time>
      </trkpt>
      <trkpt lat="46.01979" lon="1.20454">
        <ele>366</ele>
        <time>2013-10-20T07:31:04Z</time>
      </trkpt>
      <trkpt lat="46.01976" lon="1.20489">
        <ele>367.6</ele>
        <time>2013-10-20T07:31:12Z</time>
      </trkpt>
      <trkpt lat="46.01968" lon="1.20517">
        <ele>369</ele>
        <time>2013-10-20T07:31:19Z</time>
      </trkpt>
      <trkpt lat="46.0196" lon="1.20542">
        <ele>369.4</ele>
        <time>2013-10-20T07:31:26Z</time>
      </trkpt>
      <trkpt lat="46.01948" lon="1.20576">
        <ele>370.4</ele>
        <time>2013-10-20T07:31:34Z</time>
      </trkpt>
      <trkpt lat="46.01936" lon="1.20602">
        <ele>371</ele>
        <time>2013-10-20T07:31:41Z</time>
      </trkpt>
      <trkpt lat="46.01924" lon="1.20626">
        <ele>368.5</ele>
        <time>2013-10-20T07:31:49Z</time>
      </trkpt>
      <trkpt lat="46.01915" lon="1.20651">
        <ele>369.1</ele>
        <time>2013-10-20T07:31:58Z</time>
      </trkpt>
      <trkpt lat="46.01925" lon="1.20674">
        <ele>367</ele>
        <time>2013-10-20T07:32:07Z</time>
      </trkpt>
      <trkpt lat="46.01915" lon="1.20701">
        <ele>367.9</ele>
        <time>2013-10-20T07:32:16Z</time>
      </trkpt>
      <trkpt lat="46.01906" lon="1.20733">
        <ele>368.5</ele>
        <time>2013-10-20T07:32:25Z</time>
      </trkpt>
      <trkpt lat="46.019" lon="1.20766">
        <ele>368.6</ele>
        <time>2013-10-20T07:32:32Z</time>
      </trkpt>
      <trkpt lat="46.0191" lon="1.20784">
        <ele>371.5</ele>
        <time>2013-10-20T07:32:40Z</time>
      </trkpt>
      <trkpt lat="46.0191" lon="1.20784">
        <ele>371.5</ele>
        <time>2013-10-20T07:32:47Z</time>
      </trkpt>
      <trkpt lat="46.0191" lon="1.20784">
        <ele>371.5</ele>
        <time>2013-10-20T07:32:48Z</time>
      </trkpt>
      <trkpt lat="46.0191" lon="1.20784">
        <ele>305.8</ele>
        <time>2013-10-20T07:33:13Z</time>
      </trkpt>
      <trkpt lat="46.0191" lon="1.20784">
        <ele>305.8</ele>
        <time>2013-10-20T07:42:20Z</time>
      </trkpt>
      <trkpt lat="46.01903" lon="1.20797">
        <ele>375.4</ele>
        <time>2013-10-20T07:42:20Z</time>
      </trkpt>
      <trkpt lat="46.01907" lon="1.20773">
        <ele>410.2</ele>
        <time>2013-10-20T07:43:00Z</time>
      </trkpt>
      <trkpt lat="46.01914" lon="1.2076">
        <ele>409.2</ele>
        <time>2013-10-20T07:43:06Z</time>
      </trkpt>
      <trkpt lat="46.01914" lon="1.2076">
        <ele>409.2</ele>
        <time>2013-10-20T07:43:13Z</time>
      </trkpt>
      <trkpt lat="46.01936" lon="1.20728">
        <ele>405.6</ele>
        <time>2013-10-20T07:43:44Z</time>
      </trkpt>
      <trkpt lat="46.01942" lon="1.20712">
        <ele>405.7</ele>
        <time>2013-10-20T07:43:52Z</time>
      </trkpt>
      <trkpt lat="46.0195" lon="1.20692">
        <ele>405.5</ele>
        <time>2013-10-20T07:44:00Z</time>
      </trkpt>
      <trkpt lat="46.01957" lon="1.20674">
        <ele>404.4</ele>
        <time>2013-10-20T07:44:08Z</time>
      </trkpt>
      <trkpt lat="46.0197" lon="1.20642">
        <ele>401.9</ele>
        <time>2013-10-20T07:44:22Z</time>
      </trkpt>
      <trkpt lat="46.01982" lon="1.20622">
        <ele>400.9</ele>
        <time>2013-10-20T07:44:29Z</time>
      </trkpt>
      <trkpt lat="46.01998" lon="1.2061">
        <ele>400.9</ele>
        <time>2013-10-20T07:44:38Z</time>
      </trkpt>
      <trkpt lat="46.0202" lon="1.20599">
        <ele>400</ele>
        <time>2013-10-20T07:44:47Z</time>
      </trkpt>
      <trkpt lat="46.0204" lon="1.20592">
        <ele>401</ele>
        <time>2013-10-20T07:44:58Z</time>
      </trkpt>
      <trkpt lat="46.02057" lon="1.20588">
        <ele>401</ele>
        <time>2013-10-20T07:45:07Z</time>
      </trkpt>
      <trkpt lat="46.02078" lon="1.20583">
        <ele>400.9</ele>
        <time>2013-10-20T07:45:17Z</time>
      </trkpt>
      <trkpt lat="46.02099" lon="1.20579">
        <ele>400.1</ele>
        <time>2013-10-20T07:45:27Z</time>
      </trkpt>
      <trkpt lat="46.02112" lon="1.20576">
        <ele>400.1</ele>
        <time>2013-10-20T07:45:34Z</time>
      </trkpt>
      <trkpt lat="46.02124" lon="1.2057">
        <ele>400.2</ele>
        <time>2013-10-20T07:45:40Z</time>
      </trkpt>
      <trkpt lat="46.0214" lon="1.20555">
        <ele>401.1</ele>
        <time>2013-10-20T07:45:48Z</time>
      </trkpt>
      <trkpt lat="46.02171" lon="1.20515">
        <ele>403.7</ele>
        <time>2013-10-20T07:45:56Z</time>
      </trkpt>
      <trkpt lat="46.02207" lon="1.20488">
        <ele>403.9</ele>
        <time>2013-10-20T07:46:02Z</time>
      </trkpt>
      <trkpt lat="46.02237" lon="1.20442">
        <ele>404.4</ele>
        <time>2013-10-20T07:46:08Z</time>
      </trkpt>
      <trkpt lat="46.02259" lon="1.2043">
        <ele>403.8</ele>
        <time>2013-10-20T07:46:14Z</time>
      </trkpt>
      <trkpt lat="46.02282" lon="1.20439">
        <ele>403.8</ele>
        <time>2013-10-20T07:46:25Z</time>
      </trkpt>
      <trkpt lat="46.02326" lon="1.20469">
        <ele>407</ele>
        <time>2013-10-20T07:46:39Z</time>
      </trkpt>
      <trkpt lat="46.02355" lon="1.20451">
        <ele>405.2</ele>
        <time>2013-10-20T07:46:47Z</time>
      </trkpt>
      <trkpt lat="46.02379" lon="1.20453">
        <ele>404.1</ele>
        <time>2013-10-20T07:46:54Z</time>
      </trkpt>
      <trkpt lat="46.02405" lon="1.20464">
        <ele>403</ele>
        <time>2013-10-20T07:47:00Z</time>
      </trkpt>
      <trkpt lat="46.02423" lon="1.20465">
        <ele>402.7</ele>
        <time>2013-10-20T07:47:05Z</time>
      </trkpt>
      <trkpt lat="46.02446" lon="1.20459">
        <ele>402.4</ele>
        <time>2013-10-20T07:47:11Z</time>
      </trkpt>
      <trkpt lat="46.02459" lon="1.20484">
        <ele>402.7</ele>
        <time>2013-10-20T07:47:18Z</time>
      </trkpt>
      <trkpt lat="46.02471" lon="1.20507">
        <ele>404.4</ele>
        <time>2013-10-20T07:47:25Z</time>
      </trkpt>
      <trkpt lat="46.02486" lon="1.20526">
        <ele>406</ele>
        <time>2013-10-20T07:47:33Z</time>
      </trkpt>
      <trkpt lat="46.02495" lon="1.20542">
        <ele>406.4</ele>
        <time>2013-10-20T07:47:39Z</time>
      </trkpt>
      <trkpt lat="46.02504" lon="1.2057">
        <ele>404.4</ele>
        <time>2013-10-20T07:47:47Z</time>
      </trkpt>
      <trkpt lat="46.02498" lon="1.20615">
        <ele>405.3</ele>
        <time>2013-10-20T07:47:56Z</time>
      </trkpt>
      <trkpt lat="46.02489" lon="1.20645">
        <ele>405.9</ele>
        <time>2013-10-20T07:48:04Z</time>
      </trkpt>
      <trkpt lat="46.02482" lon="1.20692">
        <ele>405</ele>
        <time>2013-10-20T07:48:12Z</time>
      </trkpt>
      <trkpt lat="46.02477" lon="1.20721">
        <ele>407.8</ele>
        <time>2013-10-20T07:48:18Z</time>
      </trkpt>
      <trkpt lat="46.02467" lon="1.20765">
        <ele>410.3</ele>
        <time>2013-10-20T07:48:27Z</time>
      </trkpt>
      <trkpt lat="46.02453" lon="1.20789">
        <ele>411.2</ele>
        <time>2013-10-20T07:48:34Z</time>
      </trkpt>
      <trkpt lat="46.02439" lon="1.20804">
        <ele>411.8</ele>
        <time>2013-10-20T07:48:44Z</time>
      </trkpt>
      <trkpt lat="46.02434" lon="1.20829">
        <ele>414</ele>
        <time>2013-10-20T07:48:52Z</time>
      </trkpt>
      <trkpt lat="46.02431" lon="1.20861">
        <ele>416.4</ele>
        <time>2013-10-20T07:49:01Z</time>
      </trkpt>
      <trkpt lat="46.02413" lon="1.2087">
        <ele>417.5</ele>
        <time>2013-10-20T07:49:15Z</time>
      </trkpt>
      <trkpt lat="46.02408" lon="1.20867">
        <ele>417.8</ele>
        <time>2013-10-20T07:49:18Z</time>
      </trkpt>
      <trkpt lat="46.02408" lon="1.20867">
        <ele>417.8</ele>
        <time>2013-10-20T07:49:26Z</time>
      </trkpt>
      <trkpt lat="46.02365" lon="1.20873">
        <ele>419.1</ele>
        <time>2013-10-20T07:49:42Z</time>
      </trkpt>
      <trkpt lat="46.02353" lon="1.20874">
        <ele>419.6</ele>
        <time>2013-10-20T07:49:48Z</time>
      </trkpt>
      <trkpt lat="46.02351" lon="1.20877">
        <ele>419.6</ele>
        <time>2013-10-20T07:49:55Z</time>
      </trkpt>
      <trkpt lat="46.02313" lon="1.20905">
        <ele>428.9</ele>
        <time>2013-10-20T07:50:19Z</time>
      </trkpt>
      <trkpt lat="46.02302" lon="1.20924">
        <ele>432.2</ele>
        <time>2013-10-20T07:50:27Z</time>
      </trkpt>
      <trkpt lat="46.02293" lon="1.20941">
        <ele>433.9</ele>
        <time>2013-10-20T07:50:35Z</time>
      </trkpt>
      <trkpt lat="46.02285" lon="1.20982">
        <ele>433</ele>
        <time>2013-10-20T07:50:46Z</time>
      </trkpt>
      <trkpt lat="46.02283" lon="1.21024">
        <ele>432.5</ele>
        <time>2013-10-20T07:50:53Z</time>
      </trkpt>
      <trkpt lat="46.02283" lon="1.21076">
        <ele>428.4</ele>
        <time>2013-10-20T07:51:00Z</time>
      </trkpt>
      <trkpt lat="46.02259" lon="1.21116">
        <ele>427.3</ele>
        <time>2013-10-20T07:51:06Z</time>
      </trkpt>
      <trkpt lat="46.02228" lon="1.21141">
        <ele>426</ele>
        <time>2013-10-20T07:51:12Z</time>
      </trkpt>
      <trkpt lat="46.02208" lon="1.21165">
        <ele>426.3</ele>
        <time>2013-10-20T07:51:17Z</time>
      </trkpt>
      <trkpt lat="46.02194" lon="1.21185">
        <ele>425.5</ele>
        <time>2013-10-20T07:51:20Z</time>
      </trkpt>
      <trkpt lat="46.0216" lon="1.21228">
        <ele>419</ele>
        <time>2013-10-20T07:51:26Z</time>
      </trkpt>
      <trkpt lat="46.02113" lon="1.2126">
        <ele>415.1</ele>
        <time>2013-10-20T07:51:32Z</time>
      </trkpt>
      <trkpt lat="46.02072" lon="1.2126">
        <ele>409.8</ele>
        <time>2013-10-20T07:51:38Z</time>
      </trkpt>
      <trkpt lat="46.02057" lon="1.21256">
        <ele>405.5</ele>
        <time>2013-10-20T07:51:44Z</time>
      </trkpt>
      <trkpt lat="46.02041" lon="1.21203">
        <ele>402.3</ele>
        <time>2013-10-20T07:51:54Z</time>
      </trkpt>
      <trkpt lat="46.02025" lon="1.21155">
        <ele>401.4</ele>
        <time>2013-10-20T07:52:00Z</time>
      </trkpt>
      <trkpt lat="46.0201" lon="1.21107">
        <ele>399.9</ele>
        <time>2013-10-20T07:52:06Z</time>
      </trkpt>
      <trkpt lat="46.01998" lon="1.21057">
        <ele>393.8</ele>
        <time>2013-10-20T07:52:12Z</time>
      </trkpt>
      <trkpt lat="46.01985" lon="1.21016">
        <ele>390</ele>
        <time>2013-10-20T07:52:17Z</time>
      </trkpt>
      <trkpt lat="46.01972" lon="1.20968">
        <ele>388.2</ele>
        <time>2013-10-20T07:52:23Z</time>
      </trkpt>
      <trkpt lat="46.01956" lon="1.20912">
        <ele>387.5</ele>
        <time>2013-10-20T07:52:29Z</time>
      </trkpt>
      <trkpt lat="46.01935" lon="1.20868">
        <ele>387.3</ele>
        <time>2013-10-20T07:52:35Z</time>
      </trkpt>
      <trkpt lat="46.01908" lon="1.20824">
        <ele>388.2</ele>
        <time>2013-10-20T07:52:41Z</time>
      </trkpt>
      <trkpt lat="46.01897" lon="1.20806">
        <ele>389.6</ele>
        <time>2013-10-20T07:52:48Z</time>
      </trkpt>
      <trkpt lat="46.01877" lon="1.2079">
        <ele>391.5</ele>
        <time>2013-10-20T07:52:59Z</time>
      </trkpt>
      <trkpt lat="46.01848" lon="1.2083">
        <ele>390.9</ele>
        <time>2013-10-20T07:53:07Z</time>
      </trkpt>
      <trkpt lat="46.01848" lon="1.2083">
        <ele>390.9</ele>
        <time>2013-10-20T07:53:13Z</time>
      </trkpt>
      <trkpt lat="46.01848" lon="1.2083">
        <ele>390.9</ele>
        <time>2013-10-20T07:53:14Z</time>
      </trkpt>
      <trkpt lat="46.01857" lon="1.20869">
        <ele>389.7</ele>
        <time>2013-10-20T07:53:45Z</time>
      </trkpt>
      <trkpt lat="46.01859" lon="1.20902">
        <ele>389.8</ele>
        <time>2013-10-20T07:53:53Z</time>
      </trkpt>
      <trkpt lat="46.01859" lon="1.2091">
        <ele>389.6</ele>
        <time>2013-10-20T07:53:56Z</time>
      </trkpt>
      <trkpt lat="46.01859" lon="1.20913">
        <ele>389.6</ele>
        <time>2013-10-20T07:54:03Z</time>
      </trkpt>
      <trkpt lat="46.01872" lon="1.20948">
        <ele>391.2</ele>
        <time>2013-10-20T07:54:13Z</time>
      </trkpt>
      <trkpt lat="46.01882" lon="1.20994">
        <ele>392.2</ele>
        <time>2013-10-20T07:54:20Z</time>
      </trkpt>
      <trkpt lat="46.01899" lon="1.21035">
        <ele>392</ele>
        <time>2013-10-20T07:54:26Z</time>
      </trkpt>
      <trkpt lat="46.01906" lon="1.21081">
        <ele>391.7</ele>
        <time>2013-10-20T07:54:33Z</time>
      </trkpt>
      <trkpt lat="46.01902" lon="1.21117">
        <ele>389.5</ele>
        <time>2013-10-20T07:54:40Z</time>
      </trkpt>
      <trkpt lat="46.01902" lon="1.21157">
        <ele>386.4</ele>
        <time>2013-10-20T07:54:46Z</time>
      </trkpt>
      <trkpt lat="46.01896" lon="1.21195">
        <ele>385.4</ele>
        <time>2013-10-20T07:54:51Z</time>
      </trkpt>
      <trkpt lat="46.01888" lon="1.21236">
        <ele>386.4</ele>
        <time>2013-10-20T07:54:58Z</time>
      </trkpt>
      <trkpt lat="46.01893" lon="1.21261">
        <ele>390.1</ele>
        <time>2013-10-20T07:55:08Z</time>
      </trkpt>
      <trkpt lat="46.01905" lon="1.21286">
        <ele>392.4</ele>
        <time>2013-10-20T07:55:16Z</time>
      </trkpt>
      <trkpt lat="46.01917" lon="1.21304">
        <ele>394.4</ele>
        <time>2013-10-20T07:55:23Z</time>
      </trkpt>
      <trkpt lat="46.01936" lon="1.21331">
        <ele>396.5</ele>
        <time>2013-10-20T07:55:31Z</time>
      </trkpt>
      <trkpt lat="46.01955" lon="1.2136">
        <ele>397.9</ele>
        <time>2013-10-20T07:55:39Z</time>
      </trkpt>
      <trkpt lat="46.01973" lon="1.21377">
        <ele>398.6</ele>
        <time>2013-10-20T07:55:45Z</time>
      </trkpt>
      <trkpt lat="46.01996" lon="1.21391">
        <ele>400</ele>
        <time>2013-10-20T07:55:50Z</time>
      </trkpt>
      <trkpt lat="46.02021" lon="1.21407">
        <ele>400.5</ele>
        <time>2013-10-20T07:55:56Z</time>
      </trkpt>
      <trkpt lat="46.02043" lon="1.21431">
        <ele>399.6</ele>
        <time>2013-10-20T07:56:03Z</time>
      </trkpt>
      <trkpt lat="46.02056" lon="1.21451">
        <ele>399.3</ele>
        <time>2013-10-20T07:56:10Z</time>
      </trkpt>
      <trkpt lat="46.02052" lon="1.21472">
        <ele>393.6</ele>
        <time>2013-10-20T07:56:18Z</time>
      </trkpt>
      <trkpt lat="46.02042" lon="1.21486">
        <ele>393.5</ele>
        <time>2013-10-20T07:56:24Z</time>
      </trkpt>
      <trkpt lat="46.02032" lon="1.21493">
        <ele>393.3</ele>
        <time>2013-10-20T07:56:32Z</time>
      </trkpt>
      <trkpt lat="46.02015" lon="1.21508">
        <ele>393.1</ele>
        <time>2013-10-20T07:56:48Z</time>
      </trkpt>
      <trkpt lat="46.0201" lon="1.21513">
        <ele>393.7</ele>
        <time>2013-10-20T07:56:52Z</time>
      </trkpt>
      <trkpt lat="46.01991" lon="1.21523">
        <ele>394.8</ele>
        <time>2013-10-20T07:57:08Z</time>
      </trkpt>
      <trkpt lat="46.0198" lon="1.21524">
        <ele>395.1</ele>
        <time>2013-10-20T07:57:16Z</time>
      </trkpt>
      <trkpt lat="46.01957" lon="1.21533">
        <ele>396.6</ele>
        <time>2013-10-20T07:57:30Z</time>
      </trkpt>
      <trkpt lat="46.01935" lon="1.21539">
        <ele>398.3</ele>
        <time>2013-10-20T07:57:39Z</time>
      </trkpt>
      <trkpt lat="46.01912" lon="1.21539">
        <ele>398.8</ele>
        <time>2013-10-20T07:57:46Z</time>
      </trkpt>
      <trkpt lat="46.01892" lon="1.2154">
        <ele>399.2</ele>
        <time>2013-10-20T07:57:53Z</time>
      </trkpt>
      <trkpt lat="46.01866" lon="1.2154">
        <ele>402.2</ele>
        <time>2013-10-20T07:58:01Z</time>
      </trkpt>
      <trkpt lat="46.0185" lon="1.21545">
        <ele>403.8</ele>
        <time>2013-10-20T07:58:06Z</time>
      </trkpt>
      <trkpt lat="46.01836" lon="1.21547">
        <ele>404.8</ele>
        <time>2013-10-20T07:58:11Z</time>
      </trkpt>
      <trkpt lat="46.01823" lon="1.21543">
        <ele>405.4</ele>
        <time>2013-10-20T07:58:15Z</time>
      </trkpt>
      <trkpt lat="46.01805" lon="1.2153">
        <ele>407.3</ele>
        <time>2013-10-20T07:58:22Z</time>
      </trkpt>
      <trkpt lat="46.01786" lon="1.21514">
        <ele>407.3</ele>
        <time>2013-10-20T07:58:33Z</time>
      </trkpt>
      <trkpt lat="46.0178" lon="1.21511">
        <ele>407.5</ele>
        <time>2013-10-20T07:58:36Z</time>
      </trkpt>
      <trkpt lat="46.01762" lon="1.21498">
        <ele>408.5</ele>
        <time>2013-10-20T07:58:48Z</time>
      </trkpt>
      <trkpt lat="46.0175" lon="1.21496">
        <ele>409.9</ele>
        <time>2013-10-20T07:58:54Z</time>
      </trkpt>
      <trkpt lat="46.01732" lon="1.21496">
        <ele>409.7</ele>
        <time>2013-10-20T07:59:02Z</time>
      </trkpt>
      <trkpt lat="46.01714" lon="1.21501">
        <ele>410.4</ele>
        <time>2013-10-20T07:59:13Z</time>
      </trkpt>
      <trkpt lat="46.01699" lon="1.21504">
        <ele>412.1</ele>
        <time>2013-10-20T07:59:20Z</time>
      </trkpt>
      <trkpt lat="46.01679" lon="1.21504">
        <ele>413.2</ele>
        <time>2013-10-20T07:59:29Z</time>
      </trkpt>
      <trkpt lat="46.01654" lon="1.21507">
        <ele>415.7</ele>
        <time>2013-10-20T07:59:41Z</time>
      </trkpt>
      <trkpt lat="46.0163" lon="1.21498">
        <ele>416.6</ele>
        <time>2013-10-20T07:59:50Z</time>
      </trkpt>
      <trkpt lat="46.01606" lon="1.21483">
        <ele>416.6</ele>
        <time>2013-10-20T07:59:59Z</time>
      </trkpt>
      <trkpt lat="46.01591" lon="1.21483">
        <ele>417.9</ele>
        <time>2013-10-20T08:00:05Z</time>
      </trkpt>
      <trkpt lat="46.0157" lon="1.21483">
        <ele>420</ele>
        <time>2013-10-20T08:00:12Z</time>
      </trkpt>
      <trkpt lat="46.01554" lon="1.21483">
        <ele>420.1</ele>
        <time>2013-10-20T08:00:18Z</time>
      </trkpt>
      <trkpt lat="46.01534" lon="1.21483">
        <ele>420.9</ele>
        <time>2013-10-20T08:00:23Z</time>
      </trkpt>
      <trkpt lat="46.01518" lon="1.21485">
        <ele>420.9</ele>
        <time>2013-10-20T08:00:27Z</time>
      </trkpt>
      <trkpt lat="46.01496" lon="1.21493">
        <ele>420.7</ele>
        <time>2013-10-20T08:00:33Z</time>
      </trkpt>
      <trkpt lat="46.01481" lon="1.2152">
        <ele>420.8</ele>
        <time>2013-10-20T08:00:40Z</time>
      </trkpt>
      <trkpt lat="46.01459" lon="1.21548">
        <ele>420.7</ele>
        <time>2013-10-20T08:00:47Z</time>
      </trkpt>
      <trkpt lat="46.01445" lon="1.21579">
        <ele>420.7</ele>
        <time>2013-10-20T08:00:53Z</time>
      </trkpt>
      <trkpt lat="46.01432" lon="1.21606">
        <ele>420.7</ele>
        <time>2013-10-20T08:00:58Z</time>
      </trkpt>
      <trkpt lat="46.01414" lon="1.21642">
        <ele>420.8</ele>
        <time>2013-10-20T08:01:05Z</time>
      </trkpt>
      <trkpt lat="46.01396" lon="1.21649">
        <ele>420.8</ele>
        <time>2013-10-20T08:01:10Z</time>
      </trkpt>
      <trkpt lat="46.01369" lon="1.21652">
        <ele>420.7</ele>
        <time>2013-10-20T08:01:16Z</time>
      </trkpt>
      <trkpt lat="46.01357" lon="1.21664">
        <ele>420.7</ele>
        <time>2013-10-20T08:01:21Z</time>
      </trkpt>
      <trkpt lat="46.01357" lon="1.21707">
        <ele>420.7</ele>
        <time>2013-10-20T08:01:30Z</time>
      </trkpt>
      <trkpt lat="46.01362" lon="1.21741">
        <ele>420.7</ele>
        <time>2013-10-20T08:01:36Z</time>
      </trkpt>
      <trkpt lat="46.01367" lon="1.21763">
        <ele>420.7</ele>
        <time>2013-10-20T08:01:41Z</time>
      </trkpt>
      <trkpt lat="46.01367" lon="1.21796">
        <ele>420.7</ele>
        <time>2013-10-20T08:01:48Z</time>
      </trkpt>
      <trkpt lat="46.01363" lon="1.21829">
        <ele>420.7</ele>
        <time>2013-10-20T08:01:55Z</time>
      </trkpt>
      <trkpt lat="46.01355" lon="1.21859">
        <ele>420.7</ele>
        <time>2013-10-20T08:02:02Z</time>
      </trkpt>
      <trkpt lat="46.01344" lon="1.21876">
        <ele>420.8</ele>
        <time>2013-10-20T08:02:09Z</time>
      </trkpt>
      <trkpt lat="46.01321" lon="1.21896">
        <ele>420.7</ele>
        <time>2013-10-20T08:02:18Z</time>
      </trkpt>
      <trkpt lat="46.01308" lon="1.21906">
        <ele>420.7</ele>
        <time>2013-10-20T08:02:23Z</time>
      </trkpt>
      <trkpt lat="46.013" lon="1.21915">
        <ele>420.7</ele>
        <time>2013-10-20T08:02:27Z</time>
      </trkpt>
      <trkpt lat="46.01275" lon="1.21967">
        <ele>420.7</ele>
        <time>2013-10-20T08:02:36Z</time>
      </trkpt>
      <trkpt lat="46.01252" lon="1.22002">
        <ele>420.7</ele>
        <time>2013-10-20T08:02:41Z</time>
      </trkpt>
      <trkpt lat="46.01208" lon="1.22033">
        <ele>420.7</ele>
        <time>2013-10-20T08:02:47Z</time>
      </trkpt>
      <trkpt lat="46.01167" lon="1.22065">
        <ele>420.7</ele>
        <time>2013-10-20T08:02:52Z</time>
      </trkpt>
      <trkpt lat="46.01138" lon="1.22071">
        <ele>420.7</ele>
        <time>2013-10-20T08:02:58Z</time>
      </trkpt>
      <trkpt lat="46.01146" lon="1.22119">
        <ele>420.7</ele>
        <time>2013-10-20T08:03:05Z</time>
      </trkpt>
      <trkpt lat="46.01135" lon="1.22183">
        <ele>420.8</ele>
        <time>2013-10-20T08:03:11Z</time>
      </trkpt>
      <trkpt lat="46.01108" lon="1.22232">
        <ele>420.8</ele>
        <time>2013-10-20T08:03:17Z</time>
      </trkpt>
      <trkpt lat="46.01077" lon="1.22255">
        <ele>420.9</ele>
        <time>2013-10-20T08:03:23Z</time>
      </trkpt>
      <trkpt lat="46.0106" lon="1.2226">
        <ele>420.8</ele>
        <time>2013-10-20T08:03:26Z</time>
      </trkpt>
      <trkpt lat="46.01043" lon="1.22295">
        <ele>420.8</ele>
        <time>2013-10-20T08:03:32Z</time>
      </trkpt>
      <trkpt lat="46.01029" lon="1.22338">
        <ele>420.8</ele>
        <time>2013-10-20T08:03:38Z</time>
      </trkpt>
      <trkpt lat="46.01038" lon="1.22383">
        <ele>420.8</ele>
        <time>2013-10-20T08:03:44Z</time>
      </trkpt>
      <trkpt lat="46.0106" lon="1.22437">
        <ele>420.8</ele>
        <time>2013-10-20T08:03:50Z</time>
      </trkpt>
      <trkpt lat="46.01094" lon="1.22466">
        <ele>420.9</ele>
        <time>2013-10-20T08:03:56Z</time>
      </trkpt>
      <trkpt lat="46.0113" lon="1.22488">
        <ele>420.9</ele>
        <time>2013-10-20T08:04:02Z</time>
      </trkpt>
      <trkpt lat="46.01162" lon="1.22526">
        <ele>420.9</ele>
        <time>2013-10-20T08:04:08Z</time>
      </trkpt>
      <trkpt lat="46.01192" lon="1.22551">
        <ele>420.8</ele>
        <time>2013-10-20T08:04:14Z</time>
      </trkpt>
      <trkpt lat="46.0121" lon="1.22535">
        <ele>420.9</ele>
        <time>2013-10-20T08:04:20Z</time>
      </trkpt>
      <trkpt lat="46.01218" lon="1.22526">
        <ele>420.8</ele>
        <time>2013-10-20T08:04:24Z</time>
      </trkpt>
      <trkpt lat="46.01218" lon="1.22526">
        <ele>420.7</ele>
        <time>2013-10-20T08:04:30Z</time>
      </trkpt>
      <trkpt lat="46.0124" lon="1.2254">
        <ele>420.1</ele>
        <time>2013-10-20T08:04:54Z</time>
      </trkpt>
      <trkpt lat="46.01249" lon="1.22563">
        <ele>420.2</ele>
        <time>2013-10-20T08:05:02Z</time>
      </trkpt>
      <trkpt lat="46.01251" lon="1.22598">
        <ele>420.2</ele>
        <time>2013-10-20T08:05:11Z</time>
      </trkpt>
      <trkpt lat="46.01251" lon="1.22609">
        <ele>420.4</ele>
        <time>2013-10-20T08:05:16Z</time>
      </trkpt>
      <trkpt lat="46.01253" lon="1.22618">
        <ele>420.6</ele>
        <time>2013-10-20T08:05:28Z</time>
      </trkpt>
      <trkpt lat="46.01256" lon="1.22659">
        <ele>420.4</ele>
        <time>2013-10-20T08:05:42Z</time>
      </trkpt>
      <trkpt lat="46.01264" lon="1.22687">
        <ele>420.4</ele>
        <time>2013-10-20T08:05:53Z</time>
      </trkpt>
      <trkpt lat="46.01272" lon="1.22703">
        <ele>420.5</ele>
        <time>2013-10-20T08:06:02Z</time>
      </trkpt>
      <trkpt lat="46.01281" lon="1.22733">
        <ele>420.6</ele>
        <time>2013-10-20T08:06:13Z</time>
      </trkpt>
      <trkpt lat="46.01294" lon="1.22745">
        <ele>420.6</ele>
        <time>2013-10-20T08:06:20Z</time>
      </trkpt>
      <trkpt lat="46.01304" lon="1.22779">
        <ele>420.7</ele>
        <time>2013-10-20T08:06:31Z</time>
      </trkpt>
      <trkpt lat="46.01303" lon="1.22796">
        <ele>421.2</ele>
        <time>2013-10-20T08:06:41Z</time>
      </trkpt>
      <trkpt lat="46.01297" lon="1.22803">
        <ele>421.1</ele>
        <time>2013-10-20T08:06:44Z</time>
      </trkpt>
      <trkpt lat="46.01284" lon="1.22825">
        <ele>421.5</ele>
        <time>2013-10-20T08:06:53Z</time>
      </trkpt>
      <trkpt lat="46.01277" lon="1.22846">
        <ele>421.4</ele>
        <time>2013-10-20T08:06:59Z</time>
      </trkpt>
      <trkpt lat="46.01266" lon="1.22877">
        <ele>421.3</ele>
        <time>2013-10-20T08:07:06Z</time>
      </trkpt>
      <trkpt lat="46.0126" lon="1.22907">
        <ele>421.5</ele>
        <time>2013-10-20T08:07:14Z</time>
      </trkpt>
      <trkpt lat="46.0126" lon="1.22937">
        <ele>421.8</ele>
        <time>2013-10-20T08:07:23Z</time>
      </trkpt>
      <trkpt lat="46.01256" lon="1.22951">
        <ele>421.6</ele>
        <time>2013-10-20T08:07:29Z</time>
      </trkpt>
      <trkpt lat="46.01256" lon="1.22951">
        <ele>421.6</ele>
        <time>2013-10-20T08:07:36Z</time>
      </trkpt>
      <trkpt lat="46.01252" lon="1.22988">
        <ele>409.7</ele>
        <time>2013-10-20T08:08:45Z</time>
      </trkpt>
      <trkpt lat="46.01225" lon="1.23">
        <ele>408.2</ele>
        <time>2013-10-20T08:08:56Z</time>
      </trkpt>
      <trkpt lat="46.01203" lon="1.2301">
        <ele>406.6</ele>
        <time>2013-10-20T08:09:05Z</time>
      </trkpt>
      <trkpt lat="46.01189" lon="1.23029">
        <ele>406.5</ele>
        <time>2013-10-20T08:09:14Z</time>
      </trkpt>
      <trkpt lat="46.01171" lon="1.23052">
        <ele>404.8</ele>
        <time>2013-10-20T08:09:26Z</time>
      </trkpt>
      <trkpt lat="46.01154" lon="1.23082">
        <ele>402.6</ele>
        <time>2013-10-20T08:09:36Z</time>
      </trkpt>
      <trkpt lat="46.01137" lon="1.23115">
        <ele>401.4</ele>
        <time>2013-10-20T08:09:44Z</time>
      </trkpt>
      <trkpt lat="46.01128" lon="1.23145">
        <ele>401.5</ele>
        <time>2013-10-20T08:09:50Z</time>
      </trkpt>
      <trkpt lat="46.01123" lon="1.23194">
        <ele>401.2</ele>
        <time>2013-10-20T08:09:57Z</time>
      </trkpt>
      <trkpt lat="46.01118" lon="1.23234">
        <ele>401.5</ele>
        <time>2013-10-20T08:10:04Z</time>
      </trkpt>
      <trkpt lat="46.01113" lon="1.2325">
        <ele>399.2</ele>
        <time>2013-10-20T08:10:10Z</time>
      </trkpt>
      <trkpt lat="46.01091" lon="1.23243">
        <ele>400.4</ele>
        <time>2013-10-20T08:10:18Z</time>
      </trkpt>
      <trkpt lat="46.01066" lon="1.23243">
        <ele>399</ele>
        <time>2013-10-20T08:10:23Z</time>
      </trkpt>
      <trkpt lat="46.01053" lon="1.23279">
        <ele>397.9</ele>
        <time>2013-10-20T08:10:29Z</time>
      </trkpt>
      <trkpt lat="46.01046" lon="1.23319">
        <ele>397.1</ele>
        <time>2013-10-20T08:10:35Z</time>
      </trkpt>
      <trkpt lat="46.0103" lon="1.23355">
        <ele>394.2</ele>
        <time>2013-10-20T08:10:41Z</time>
      </trkpt>
      <trkpt lat="46.01033" lon="1.23386">
        <ele>392.2</ele>
        <time>2013-10-20T08:10:48Z</time>
      </trkpt>
      <trkpt lat="46.01032" lon="1.23393">
        <ele>392</ele>
        <time>2013-10-20T08:10:51Z</time>
      </trkpt>
      <trkpt lat="46.01028" lon="1.23396">
        <ele>391.6</ele>
        <time>2013-10-20T08:10:58Z</time>
      </trkpt>
      <trkpt lat="46.01006" lon="1.2341">
        <ele>390.1</ele>
        <time>2013-10-20T08:11:30Z</time>
      </trkpt>
      <trkpt lat="46.0098" lon="1.23416">
        <ele>390.9</ele>
        <time>2013-10-20T08:11:40Z</time>
      </trkpt>
      <trkpt lat="46.00954" lon="1.23416">
        <ele>391.2</ele>
        <time>2013-10-20T08:11:49Z</time>
      </trkpt>
      <trkpt lat="46.00926" lon="1.23425">
        <ele>391</ele>
        <time>2013-10-20T08:11:56Z</time>
      </trkpt>
      <trkpt lat="46.00894" lon="1.23437">
        <ele>390.7</ele>
        <time>2013-10-20T08:12:02Z</time>
      </trkpt>
      <trkpt lat="46.00866" lon="1.23418">
        <ele>390</ele>
        <time>2013-10-20T08:12:08Z</time>
      </trkpt>
      <trkpt lat="46.00861" lon="1.23385">
        <ele>391.7</ele>
        <time>2013-10-20T08:12:14Z</time>
      </trkpt>
      <trkpt lat="46.00866" lon="1.23348">
        <ele>393.4</ele>
        <time>2013-10-20T08:12:21Z</time>
      </trkpt>
      <trkpt lat="46.00859" lon="1.23331">
        <ele>396.6</ele>
        <time>2013-10-20T08:12:26Z</time>
      </trkpt>
      <trkpt lat="46.00845" lon="1.23321">
        <ele>397.2</ele>
        <time>2013-10-20T08:12:35Z</time>
      </trkpt>
      <trkpt lat="46.0083" lon="1.2332">
        <ele>398.2</ele>
        <time>2013-10-20T08:12:44Z</time>
      </trkpt>
      <trkpt lat="46.0083" lon="1.2332">
        <ele>398.2</ele>
        <time>2013-10-20T08:12:53Z</time>
      </trkpt>
      <trkpt lat="46.00809" lon="1.23342">
        <ele>405.9</ele>
        <time>2013-10-20T08:13:50Z</time>
      </trkpt>
      <trkpt lat="46.00807" lon="1.2338">
        <ele>405.2</ele>
        <time>2013-10-20T08:13:58Z</time>
      </trkpt>
      <trkpt lat="46.0081" lon="1.23431">
        <ele>405.5</ele>
        <time>2013-10-20T08:14:03Z</time>
      </trkpt>
      <trkpt lat="46.00814" lon="1.23487">
        <ele>406.1</ele>
        <time>2013-10-20T08:14:09Z</time>
      </trkpt>
      <trkpt lat="46.00817" lon="1.23525">
        <ele>405.8</ele>
        <time>2013-10-20T08:14:15Z</time>
      </trkpt>
      <trkpt lat="46.00804" lon="1.2355">
        <ele>403.7</ele>
        <time>2013-10-20T08:14:21Z</time>
      </trkpt>
      <trkpt lat="46.00782" lon="1.23581">
        <ele>402</ele>
        <time>2013-10-20T08:14:28Z</time>
      </trkpt>
      <trkpt lat="46.00759" lon="1.23597">
        <ele>401.9</ele>
        <time>2013-10-20T08:14:34Z</time>
      </trkpt>
      <trkpt lat="46.00753" lon="1.23601">
        <ele>402.3</ele>
        <time>2013-10-20T08:14:37Z</time>
      </trkpt>
      <trkpt lat="46.00749" lon="1.23603">
        <ele>402.4</ele>
        <time>2013-10-20T08:14:44Z</time>
      </trkpt>
      <trkpt lat="46.0073" lon="1.2361">
        <ele>402</ele>
        <time>2013-10-20T08:14:55Z</time>
      </trkpt>
      <trkpt lat="46.00711" lon="1.23619">
        <ele>402</ele>
        <time>2013-10-20T08:15:06Z</time>
      </trkpt>
      <trkpt lat="46.00705" lon="1.23622">
        <ele>401.5</ele>
        <time>2013-10-20T08:15:09Z</time>
      </trkpt>
      <trkpt lat="46.00696" lon="1.23634">
        <ele>402.4</ele>
        <time>2013-10-20T08:15:17Z</time>
      </trkpt>
      <trkpt lat="46.00683" lon="1.23647">
        <ele>401.1</ele>
        <time>2013-10-20T08:15:23Z</time>
      </trkpt>
      <trkpt lat="46.00677" lon="1.23654">
        <ele>401.7</ele>
        <time>2013-10-20T08:15:28Z</time>
      </trkpt>
      <trkpt lat="46.00677" lon="1.23654">
        <ele>401.7</ele>
        <time>2013-10-20T08:15:34Z</time>
      </trkpt>
      <trkpt lat="46.00677" lon="1.23654">
        <ele>337.9</ele>
        <time>2013-10-20T08:16:17Z</time>
      </trkpt>
      <trkpt lat="46.00677" lon="1.23654">
        <ele>337.9</ele>
        <time>2013-10-20T08:23:20Z</time>
      </trkpt>
      <trkpt lat="46.00669" lon="1.23654">
        <ele>417.4</ele>
        <time>2013-10-20T08:23:22Z</time>
      </trkpt>
      <trkpt lat="46.00651" lon="1.23658">
        <ele>415.7</ele>
        <time>2013-10-20T08:23:51Z</time>
      </trkpt>
      <trkpt lat="46.00624" lon="1.2366">
        <ele>415.6</ele>
        <time>2013-10-20T08:23:57Z</time>
      </trkpt>
      <trkpt lat="46.00594" lon="1.23663">
        <ele>415.8</ele>
        <time>2013-10-20T08:24:04Z</time>
      </trkpt>
      <trkpt lat="46.0057" lon="1.23659">
        <ele>415.7</ele>
        <time>2013-10-20T08:24:09Z</time>
      </trkpt>
      <trkpt lat="46.00543" lon="1.23654">
        <ele>415.8</ele>
        <time>2013-10-20T08:24:15Z</time>
      </trkpt>
      <trkpt lat="46.00514" lon="1.2365">
        <ele>416.7</ele>
        <time>2013-10-20T08:24:20Z</time>
      </trkpt>
      <trkpt lat="46.00459" lon="1.23647">
        <ele>414</ele>
        <time>2013-10-20T08:24:26Z</time>
      </trkpt>
      <trkpt lat="46.00402" lon="1.23632">
        <ele>412.5</ele>
        <time>2013-10-20T08:24:32Z</time>
      </trkpt>
      <trkpt lat="46.00374" lon="1.23616">
        <ele>411.9</ele>
        <time>2013-10-20T08:24:37Z</time>
      </trkpt>
      <trkpt lat="46.00362" lon="1.23613">
        <ele>409.2</ele>
        <time>2013-10-20T08:24:43Z</time>
      </trkpt>
      <trkpt lat="46.0033" lon="1.23601">
        <ele>406</ele>
        <time>2013-10-20T08:24:55Z</time>
      </trkpt>
      <trkpt lat="46.00308" lon="1.23595">
        <ele>405.8</ele>
        <time>2013-10-20T08:25:03Z</time>
      </trkpt>
      <trkpt lat="46.00287" lon="1.23587">
        <ele>405.7</ele>
        <time>2013-10-20T08:25:11Z</time>
      </trkpt>
      <trkpt lat="46.00269" lon="1.23574">
        <ele>405.2</ele>
        <time>2013-10-20T08:25:18Z</time>
      </trkpt>
      <trkpt lat="46.00245" lon="1.23567">
        <ele>403.7</ele>
        <time>2013-10-20T08:25:26Z</time>
      </trkpt>
      <trkpt lat="46.00223" lon="1.23551">
        <ele>403.7</ele>
        <time>2013-10-20T08:25:34Z</time>
      </trkpt>
      <trkpt lat="46.00206" lon="1.23543">
        <ele>404.9</ele>
        <time>2013-10-20T08:25:40Z</time>
      </trkpt>
      <trkpt lat="46.00188" lon="1.23524">
        <ele>406.6</ele>
        <time>2013-10-20T08:25:50Z</time>
      </trkpt>
      <trkpt lat="46.00163" lon="1.2351">
        <ele>408.2</ele>
        <time>2013-10-20T08:26:02Z</time>
      </trkpt>
      <trkpt lat="46.00143" lon="1.23505">
        <ele>410</ele>
        <time>2013-10-20T08:26:14Z</time>
      </trkpt>
      <trkpt lat="46.00121" lon="1.23499">
        <ele>411.9</ele>
        <time>2013-10-20T08:26:26Z</time>
      </trkpt>
      <trkpt lat="46.00103" lon="1.23487">
        <ele>413.6</ele>
        <time>2013-10-20T08:26:37Z</time>
      </trkpt>
      <trkpt lat="46.00076" lon="1.23476">
        <ele>416.4</ele>
        <time>2013-10-20T08:26:47Z</time>
      </trkpt>
      <trkpt lat="46.00037" lon="1.23463">
        <ele>417.6</ele>
        <time>2013-10-20T08:26:55Z</time>
      </trkpt>
      <trkpt lat="46.00002" lon="1.23466">
        <ele>418.3</ele>
        <time>2013-10-20T08:27:01Z</time>
      </trkpt>
      <trkpt lat="45.99973" lon="1.23468">
        <ele>419.2</ele>
        <time>2013-10-20T08:27:06Z</time>
      </trkpt>
      <trkpt lat="45.99957" lon="1.23466">
        <ele>418.6</ele>
        <time>2013-10-20T08:27:09Z</time>
      </trkpt>
      <trkpt lat="45.99932" lon="1.23457">
        <ele>418.9</ele>
        <time>2013-10-20T08:27:15Z</time>
      </trkpt>
      <trkpt lat="45.99911" lon="1.23466">
        <ele>420.2</ele>
        <time>2013-10-20T08:27:21Z</time>
      </trkpt>
      <trkpt lat="45.99881" lon="1.23483">
        <ele>420.2</ele>
        <time>2013-10-20T08:27:30Z</time>
      </trkpt>
      <trkpt lat="45.99854" lon="1.23492">
        <ele>420.3</ele>
        <time>2013-10-20T08:27:38Z</time>
      </trkpt>
      <trkpt lat="45.99852" lon="1.23492">
        <ele>420.5</ele>
        <time>2013-10-20T08:27:39Z</time>
      </trkpt>
      <trkpt lat="45.99844" lon="1.23496">
        <ele>423.4</ele>
        <time>2013-10-20T08:27:50Z</time>
      </trkpt>
      <trkpt lat="45.99819" lon="1.23509">
        <ele>424.6</ele>
        <time>2013-10-20T08:28:01Z</time>
      </trkpt>
      <trkpt lat="45.99804" lon="1.23523">
        <ele>424.4</ele>
        <time>2013-10-20T08:28:09Z</time>
      </trkpt>
      <trkpt lat="45.99789" lon="1.23538">
        <ele>423.3</ele>
        <time>2013-10-20T08:28:21Z</time>
      </trkpt>
      <trkpt lat="45.99766" lon="1.23552">
        <ele>427.5</ele>
        <time>2013-10-20T08:28:33Z</time>
      </trkpt>
      <trkpt lat="45.99737" lon="1.23596">
        <ele>423.7</ele>
        <time>2013-10-20T08:28:40Z</time>
      </trkpt>
      <trkpt lat="45.99721" lon="1.23627">
        <ele>422.4</ele>
        <time>2013-10-20T08:28:45Z</time>
      </trkpt>
      <trkpt lat="45.99714" lon="1.2363">
        <ele>421.5</ele>
        <time>2013-10-20T08:28:50Z</time>
      </trkpt>
      <trkpt lat="45.99711" lon="1.23634">
        <ele>419.2</ele>
        <time>2013-10-20T08:28:57Z</time>
      </trkpt>
      <trkpt lat="45.99702" lon="1.23651">
        <ele>414.7</ele>
        <time>2013-10-20T08:29:10Z</time>
      </trkpt>
      <trkpt lat="45.99688" lon="1.23674">
        <ele>415</ele>
        <time>2013-10-20T08:29:16Z</time>
      </trkpt>
      <trkpt lat="45.99663" lon="1.23696">
        <ele>413.6</ele>
        <time>2013-10-20T08:29:24Z</time>
      </trkpt>
      <trkpt lat="45.99637" lon="1.2371">
        <ele>415.1</ele>
        <time>2013-10-20T08:29:30Z</time>
      </trkpt>
      <trkpt lat="45.99617" lon="1.2372">
        <ele>415.6</ele>
        <time>2013-10-20T08:29:38Z</time>
      </trkpt>
      <trkpt lat="45.99599" lon="1.2372">
        <ele>414.7</ele>
        <time>2013-10-20T08:29:46Z</time>
      </trkpt>
      <trkpt lat="45.99581" lon="1.23731">
        <ele>415.4</ele>
        <time>2013-10-20T08:29:54Z</time>
      </trkpt>
      <trkpt lat="45.99565" lon="1.23746">
        <ele>415</ele>
        <time>2013-10-20T08:30:00Z</time>
      </trkpt>
      <trkpt lat="45.99542" lon="1.23757">
        <ele>415.6</ele>
        <time>2013-10-20T08:30:06Z</time>
      </trkpt>
      <trkpt lat="45.9952" lon="1.23776">
        <ele>416.1</ele>
        <time>2013-10-20T08:30:11Z</time>
      </trkpt>
      <trkpt lat="45.99488" lon="1.23805">
        <ele>415.6</ele>
        <time>2013-10-20T08:30:17Z</time>
      </trkpt>
      <trkpt lat="45.99455" lon="1.23838">
        <ele>414.3</ele>
        <time>2013-10-20T08:30:23Z</time>
      </trkpt>
      <trkpt lat="45.99436" lon="1.2384">
        <ele>413.7</ele>
        <time>2013-10-20T08:30:28Z</time>
      </trkpt>
      <trkpt lat="45.99422" lon="1.23842">
        <ele>413.4</ele>
        <time>2013-10-20T08:30:31Z</time>
      </trkpt>
      <trkpt lat="45.99392" lon="1.23848">
        <ele>412.4</ele>
        <time>2013-10-20T08:30:38Z</time>
      </trkpt>
      <trkpt lat="45.99361" lon="1.23853">
        <ele>411.8</ele>
        <time>2013-10-20T08:30:46Z</time>
      </trkpt>
      <trkpt lat="45.99342" lon="1.23857">
        <ele>410.8</ele>
        <time>2013-10-20T08:30:53Z</time>
      </trkpt>
      <trkpt lat="45.99332" lon="1.23857">
        <ele>411.8</ele>
        <time>2013-10-20T08:30:58Z</time>
      </trkpt>
      <trkpt lat="45.99311" lon="1.2386">
        <ele>411.6</ele>
        <time>2013-10-20T08:31:07Z</time>
      </trkpt>
      <trkpt lat="45.99287" lon="1.23855">
        <ele>408.5</ele>
        <time>2013-10-20T08:31:15Z</time>
      </trkpt>
      <trkpt lat="45.9927" lon="1.23842">
        <ele>408.1</ele>
        <time>2013-10-20T08:31:23Z</time>
      </trkpt>
      <trkpt lat="45.99256" lon="1.2384">
        <ele>409.8</ele>
        <time>2013-10-20T08:31:31Z</time>
      </trkpt>
      <trkpt lat="45.99239" lon="1.23823">
        <ele>409.1</ele>
        <time>2013-10-20T08:31:41Z</time>
      </trkpt>
      <trkpt lat="45.99228" lon="1.23808">
        <ele>408.3</ele>
        <time>2013-10-20T08:31:47Z</time>
      </trkpt>
      <trkpt lat="45.99221" lon="1.238">
        <ele>408.1</ele>
        <time>2013-10-20T08:31:51Z</time>
      </trkpt>
      <trkpt lat="45.99212" lon="1.2379">
        <ele>407.8</ele>
        <time>2013-10-20T08:31:56Z</time>
      </trkpt>
      <trkpt lat="45.99197" lon="1.23777">
        <ele>407.6</ele>
        <time>2013-10-20T08:32:04Z</time>
      </trkpt>
      <trkpt lat="45.99179" lon="1.23786">
        <ele>409.2</ele>
        <time>2013-10-20T08:32:12Z</time>
      </trkpt>
      <trkpt lat="45.99161" lon="1.23814">
        <ele>407.6</ele>
        <time>2013-10-20T08:32:22Z</time>
      </trkpt>
      <trkpt lat="45.99142" lon="1.23821">
        <ele>408.8</ele>
        <time>2013-10-20T08:32:30Z</time>
      </trkpt>
      <trkpt lat="45.99131" lon="1.23823">
        <ele>409.8</ele>
        <time>2013-10-20T08:32:36Z</time>
      </trkpt>
      <trkpt lat="45.99131" lon="1.23823">
        <ele>409.8</ele>
        <time>2013-10-20T08:32:43Z</time>
      </trkpt>
      <trkpt lat="45.99131" lon="1.23823">
        <ele>409.8</ele>
        <time>2013-10-20T08:32:44Z</time>
      </trkpt>
      <trkpt lat="45.99156" lon="1.23756">
        <ele>417.4</ele>
        <time>2013-10-20T08:37:32Z</time>
      </trkpt>
      <trkpt lat="45.99166" lon="1.23736">
        <ele>415</ele>
        <time>2013-10-20T08:37:40Z</time>
      </trkpt>
      <trkpt lat="45.99178" lon="1.2372">
        <ele>415.7</ele>
        <time>2013-10-20T08:37:48Z</time>
      </trkpt>
      <trkpt lat="45.99191" lon="1.237">
        <ele>417.4</ele>
        <time>2013-10-20T08:37:59Z</time>
      </trkpt>
      <trkpt lat="45.99198" lon="1.23687">
        <ele>418.7</ele>
        <time>2013-10-20T08:38:06Z</time>
      </trkpt>
      <trkpt lat="45.99204" lon="1.23675">
        <ele>420.7</ele>
        <time>2013-10-20T08:38:15Z</time>
      </trkpt>
      <trkpt lat="45.99217" lon="1.23658">
        <ele>422.9</ele>
        <time>2013-10-20T08:38:27Z</time>
      </trkpt>
      <trkpt lat="45.99231" lon="1.23646">
        <ele>426.2</ele>
        <time>2013-10-20T08:38:39Z</time>
      </trkpt>
      <trkpt lat="45.99254" lon="1.23642">
        <ele>430.3</ele>
        <time>2013-10-20T08:38:54Z</time>
      </trkpt>
      <trkpt lat="45.99274" lon="1.23661">
        <ele>432.1</ele>
        <time>2013-10-20T08:39:05Z</time>
      </trkpt>
      <trkpt lat="45.99282" lon="1.23665">
        <ele>433.7</ele>
        <time>2013-10-20T08:39:11Z</time>
      </trkpt>
      <trkpt lat="45.99302" lon="1.2367">
        <ele>439.5</ele>
        <time>2013-10-20T08:39:24Z</time>
      </trkpt>
      <trkpt lat="45.99314" lon="1.23668">
        <ele>442.1</ele>
        <time>2013-10-20T08:39:32Z</time>
      </trkpt>
      <trkpt lat="45.99333" lon="1.23666">
        <ele>445</ele>
        <time>2013-10-20T08:39:44Z</time>
      </trkpt>
      <trkpt lat="45.99351" lon="1.23664">
        <ele>446.2</ele>
        <time>2013-10-20T08:39:53Z</time>
      </trkpt>
      <trkpt lat="45.99371" lon="1.23661">
        <ele>447.4</ele>
        <time>2013-10-20T08:40:01Z</time>
      </trkpt>
      <trkpt lat="45.99387" lon="1.23649">
        <ele>448.6</ele>
        <time>2013-10-20T08:40:09Z</time>
      </trkpt>
      <trkpt lat="45.99404" lon="1.23639">
        <ele>451.2</ele>
        <time>2013-10-20T08:40:18Z</time>
      </trkpt>
      <trkpt lat="45.99414" lon="1.23634">
        <ele>452.3</ele>
        <time>2013-10-20T08:40:23Z</time>
      </trkpt>
      <trkpt lat="45.99442" lon="1.23612">
        <ele>452.6</ele>
        <time>2013-10-20T08:40:33Z</time>
      </trkpt>
      <trkpt lat="45.99465" lon="1.23595">
        <ele>452.2</ele>
        <time>2013-10-20T08:40:40Z</time>
      </trkpt>
      <trkpt lat="45.99489" lon="1.23577">
        <ele>453.5</ele>
        <time>2013-10-20T08:40:47Z</time>
      </trkpt>
      <trkpt lat="45.99512" lon="1.23557">
        <ele>454.5</ele>
        <time>2013-10-20T08:40:54Z</time>
      </trkpt>
      <trkpt lat="45.99529" lon="1.23538">
        <ele>454.1</ele>
        <time>2013-10-20T08:40:59Z</time>
      </trkpt>
      <trkpt lat="45.99539" lon="1.23524">
        <ele>454</ele>
        <time>2013-10-20T08:41:02Z</time>
      </trkpt>
      <trkpt lat="45.9956" lon="1.23493">
        <ele>453.4</ele>
        <time>2013-10-20T08:41:08Z</time>
      </trkpt>
      <trkpt lat="45.99586" lon="1.23458">
        <ele>450.8</ele>
        <time>2013-10-20T08:41:14Z</time>
      </trkpt>
      <trkpt lat="45.99598" lon="1.2342">
        <ele>449.3</ele>
        <time>2013-10-20T08:41:20Z</time>
      </trkpt>
      <trkpt lat="45.99612" lon="1.2338">
        <ele>450.3</ele>
        <time>2013-10-20T08:41:26Z</time>
      </trkpt>
      <trkpt lat="45.99624" lon="1.23342">
        <ele>450.1</ele>
        <time>2013-10-20T08:41:32Z</time>
      </trkpt>
      <trkpt lat="45.99623" lon="1.23317">
        <ele>450.1</ele>
        <time>2013-10-20T08:41:38Z</time>
      </trkpt>
      <trkpt lat="45.9963" lon="1.23284">
        <ele>450.3</ele>
        <time>2013-10-20T08:41:46Z</time>
      </trkpt>
      <trkpt lat="45.99633" lon="1.23267">
        <ele>451</ele>
        <time>2013-10-20T08:41:51Z</time>
      </trkpt>
      <trkpt lat="45.99637" lon="1.23234">
        <ele>451.5</ele>
        <time>2013-10-20T08:42:00Z</time>
      </trkpt>
      <trkpt lat="45.99639" lon="1.23203">
        <ele>451.5</ele>
        <time>2013-10-20T08:42:08Z</time>
      </trkpt>
      <trkpt lat="45.99636" lon="1.23168">
        <ele>452.2</ele>
        <time>2013-10-20T08:42:16Z</time>
      </trkpt>
      <trkpt lat="45.99632" lon="1.23143">
        <ele>452.4</ele>
        <time>2013-10-20T08:42:22Z</time>
      </trkpt>
      <trkpt lat="45.99621" lon="1.23114">
        <ele>453</ele>
        <time>2013-10-20T08:42:30Z</time>
      </trkpt>
      <trkpt lat="45.9961" lon="1.23097">
        <ele>454.2</ele>
        <time>2013-10-20T08:42:37Z</time>
      </trkpt>
      <trkpt lat="45.99603" lon="1.23076">
        <ele>456.1</ele>
        <time>2013-10-20T08:42:46Z</time>
      </trkpt>
      <trkpt lat="45.99628" lon="1.23025">
        <ele>455.5</ele>
        <time>2013-10-20T08:42:55Z</time>
      </trkpt>
      <trkpt lat="45.99633" lon="1.23003">
        <ele>454.1</ele>
        <time>2013-10-20T08:43:01Z</time>
      </trkpt>
      <trkpt lat="45.99665" lon="1.23008">
        <ele>455.4</ele>
        <time>2013-10-20T08:43:12Z</time>
      </trkpt>
      <trkpt lat="45.99686" lon="1.23012">
        <ele>456.2</ele>
        <time>2013-10-20T08:43:19Z</time>
      </trkpt>
      <trkpt lat="45.99704" lon="1.23016">
        <ele>455.8</ele>
        <time>2013-10-20T08:43:26Z</time>
      </trkpt>
      <trkpt lat="45.99718" lon="1.23019">
        <ele>455.3</ele>
        <time>2013-10-20T08:43:34Z</time>
      </trkpt>
      <trkpt lat="45.99738" lon="1.23022">
        <ele>456.5</ele>
        <time>2013-10-20T08:43:48Z</time>
      </trkpt>
      <trkpt lat="45.99752" lon="1.23022">
        <ele>456.6</ele>
        <time>2013-10-20T08:43:53Z</time>
      </trkpt>
      <trkpt lat="45.99773" lon="1.23023">
        <ele>457.1</ele>
        <time>2013-10-20T08:43:59Z</time>
      </trkpt>
      <trkpt lat="45.99788" lon="1.23026">
        <ele>457.8</ele>
        <time>2013-10-20T08:44:04Z</time>
      </trkpt>
      <trkpt lat="45.99789" lon="1.23006">
        <ele>455.9</ele>
        <time>2013-10-20T08:44:13Z</time>
      </trkpt>
      <trkpt lat="45.99804" lon="1.22996">
        <ele>454</ele>
        <time>2013-10-20T08:44:18Z</time>
      </trkpt>
      <trkpt lat="45.99817" lon="1.22976">
        <ele>452.9</ele>
        <time>2013-10-20T08:44:23Z</time>
      </trkpt>
      <trkpt lat="45.99832" lon="1.22966">
        <ele>451.9</ele>
        <time>2013-10-20T08:44:31Z</time>
      </trkpt>
      <trkpt lat="45.99842" lon="1.22954">
        <ele>449.6</ele>
        <time>2013-10-20T08:44:36Z</time>
      </trkpt>
      <trkpt lat="45.99842" lon="1.22952">
        <ele>447.2</ele>
        <time>2013-10-20T08:44:42Z</time>
      </trkpt>
      <trkpt lat="45.99852" lon="1.22928">
        <ele>443.3</ele>
        <time>2013-10-20T08:45:19Z</time>
      </trkpt>
      <trkpt lat="45.9986" lon="1.22905">
        <ele>442.6</ele>
        <time>2013-10-20T08:45:28Z</time>
      </trkpt>
      <trkpt lat="45.99867" lon="1.22876">
        <ele>443.3</ele>
        <time>2013-10-20T08:45:40Z</time>
      </trkpt>
      <trkpt lat="45.99877" lon="1.22848">
        <ele>444.3</ele>
        <time>2013-10-20T08:45:52Z</time>
      </trkpt>
      <trkpt lat="45.99875" lon="1.22824">
        <ele>444.7</ele>
        <time>2013-10-20T08:46:04Z</time>
      </trkpt>
      <trkpt lat="45.9987" lon="1.22808">
        <ele>445.2</ele>
        <time>2013-10-20T08:46:11Z</time>
      </trkpt>
      <trkpt lat="45.99851" lon="1.22795">
        <ele>446.9</ele>
        <time>2013-10-20T08:46:25Z</time>
      </trkpt>
      <trkpt lat="45.99838" lon="1.2279">
        <ele>447.5</ele>
        <time>2013-10-20T08:46:34Z</time>
      </trkpt>
      <trkpt lat="45.99814" lon="1.22784">
        <ele>448.1</ele>
        <time>2013-10-20T08:46:48Z</time>
      </trkpt>
      <trkpt lat="45.99807" lon="1.22765">
        <ele>448.8</ele>
        <time>2013-10-20T08:46:54Z</time>
      </trkpt>
      <trkpt lat="45.99794" lon="1.22749">
        <ele>450.8</ele>
        <time>2013-10-20T08:47:03Z</time>
      </trkpt>
      <trkpt lat="45.99806" lon="1.22722">
        <ele>452.1</ele>
        <time>2013-10-20T08:47:11Z</time>
      </trkpt>
      <trkpt lat="45.99833" lon="1.22676">
        <ele>450.8</ele>
        <time>2013-10-20T08:47:16Z</time>
      </trkpt>
      <trkpt lat="45.9988" lon="1.22612">
        <ele>449.1</ele>
        <time>2013-10-20T08:47:22Z</time>
      </trkpt>
      <trkpt lat="45.99894" lon="1.2256">
        <ele>442.4</ele>
        <time>2013-10-20T08:47:29Z</time>
      </trkpt>
      <trkpt lat="45.999" lon="1.22531">
        <ele>439.4</ele>
        <time>2013-10-20T08:47:35Z</time>
      </trkpt>
      <trkpt lat="45.99904" lon="1.22507">
        <ele>439.4</ele>
        <time>2013-10-20T08:47:41Z</time>
      </trkpt>
      <trkpt lat="45.9991" lon="1.22476">
        <ele>440.7</ele>
        <time>2013-10-20T08:47:47Z</time>
      </trkpt>
      <trkpt lat="45.99915" lon="1.22457">
        <ele>441.6</ele>
        <time>2013-10-20T08:47:53Z</time>
      </trkpt>
      <trkpt lat="45.9992" lon="1.22463">
        <ele>442.9</ele>
        <time>2013-10-20T08:47:59Z</time>
      </trkpt>
      <trkpt lat="45.99938" lon="1.22446">
        <ele>443.7</ele>
        <time>2013-10-20T08:48:57Z</time>
      </trkpt>
      <trkpt lat="45.99934" lon="1.22378">
        <ele>441.3</ele>
        <time>2013-10-20T08:49:05Z</time>
      </trkpt>
      <trkpt lat="45.99928" lon="1.2232">
        <ele>440.2</ele>
        <time>2013-10-20T08:49:10Z</time>
      </trkpt>
      <trkpt lat="45.99923" lon="1.22287">
        <ele>440.3</ele>
        <time>2013-10-20T08:49:15Z</time>
      </trkpt>
      <trkpt lat="45.99935" lon="1.22244">
        <ele>441.1</ele>
        <time>2013-10-20T08:49:22Z</time>
      </trkpt>
      <trkpt lat="45.99947" lon="1.22205">
        <ele>438.5</ele>
        <time>2013-10-20T08:49:27Z</time>
      </trkpt>
      <trkpt lat="45.99949" lon="1.22182">
        <ele>438.1</ele>
        <time>2013-10-20T08:49:30Z</time>
      </trkpt>
      <trkpt lat="45.99952" lon="1.22153">
        <ele>436.9</ele>
        <time>2013-10-20T08:49:36Z</time>
      </trkpt>
      <trkpt lat="45.99956" lon="1.22119">
        <ele>436</ele>
        <time>2013-10-20T08:49:42Z</time>
      </trkpt>
      <trkpt lat="45.9996" lon="1.22083">
        <ele>435.7</ele>
        <time>2013-10-20T08:49:48Z</time>
      </trkpt>
      <trkpt lat="45.99968" lon="1.22056">
        <ele>434.5</ele>
        <time>2013-10-20T08:49:54Z</time>
      </trkpt>
      <trkpt lat="45.99974" lon="1.22043">
        <ele>435.2</ele>
        <time>2013-10-20T08:50:00Z</time>
      </trkpt>
      <trkpt lat="45.9999" lon="1.22013">
        <ele>434.6</ele>
        <time>2013-10-20T08:50:16Z</time>
      </trkpt>
      <trkpt lat="45.99972" lon="1.21995">
        <ele>435.4</ele>
        <time>2013-10-20T08:50:28Z</time>
      </trkpt>
      <trkpt lat="45.99961" lon="1.21982">
        <ele>436.2</ele>
        <time>2013-10-20T08:50:35Z</time>
      </trkpt>
      <trkpt lat="45.99946" lon="1.21957">
        <ele>436.8</ele>
        <time>2013-10-20T08:50:45Z</time>
      </trkpt>
      <trkpt lat="45.99936" lon="1.21936">
        <ele>437.2</ele>
        <time>2013-10-20T08:50:53Z</time>
      </trkpt>
      <trkpt lat="45.99927" lon="1.21915">
        <ele>437.7</ele>
        <time>2013-10-20T08:51:01Z</time>
      </trkpt>
      <trkpt lat="45.99929" lon="1.21894">
        <ele>438.4</ele>
        <time>2013-10-20T08:51:11Z</time>
      </trkpt>
      <trkpt lat="45.99961" lon="1.21898">
        <ele>439.4</ele>
        <time>2013-10-20T08:51:20Z</time>
      </trkpt>
      <trkpt lat="45.99987" lon="1.21897">
        <ele>439.5</ele>
        <time>2013-10-20T08:51:26Z</time>
      </trkpt>
      <trkpt lat="46.00018" lon="1.21894">
        <ele>440.1</ele>
        <time>2013-10-20T08:51:33Z</time>
      </trkpt>
      <trkpt lat="46.00043" lon="1.21888">
        <ele>440.9</ele>
        <time>2013-10-20T08:51:39Z</time>
      </trkpt>
      <trkpt lat="46.00064" lon="1.21885">
        <ele>442.4</ele>
        <time>2013-10-20T08:51:44Z</time>
      </trkpt>
      <trkpt lat="46.0009" lon="1.21882">
        <ele>443.7</ele>
        <time>2013-10-20T08:51:50Z</time>
      </trkpt>
      <trkpt lat="46.00114" lon="1.21872">
        <ele>445</ele>
        <time>2013-10-20T08:51:56Z</time>
      </trkpt>
      <trkpt lat="46.00127" lon="1.21861">
        <ele>446.1</ele>
        <time>2013-10-20T08:52:01Z</time>
      </trkpt>
      <trkpt lat="46.00152" lon="1.21851">
        <ele>448.5</ele>
        <time>2013-10-20T08:52:10Z</time>
      </trkpt>
      <trkpt lat="46.00182" lon="1.21838">
        <ele>447.1</ele>
        <time>2013-10-20T08:52:15Z</time>
      </trkpt>
      <trkpt lat="46.00232" lon="1.21804">
        <ele>443.2</ele>
        <time>2013-10-20T08:52:21Z</time>
      </trkpt>
      <trkpt lat="46.00283" lon="1.21762">
        <ele>437.2</ele>
        <time>2013-10-20T08:52:27Z</time>
      </trkpt>
      <trkpt lat="46.00305" lon="1.21723">
        <ele>434.5</ele>
        <time>2013-10-20T08:52:33Z</time>
      </trkpt>
      <trkpt lat="46.00275" lon="1.21688">
        <ele>430.7</ele>
        <time>2013-10-20T08:52:39Z</time>
      </trkpt>
      <trkpt lat="46.00245" lon="1.21658">
        <ele>427.3</ele>
        <time>2013-10-20T08:52:45Z</time>
      </trkpt>
      <trkpt lat="46.0025" lon="1.21619">
        <ele>423.4</ele>
        <time>2013-10-20T08:52:51Z</time>
      </trkpt>
      <trkpt lat="46.00254" lon="1.21594">
        <ele>420.2</ele>
        <time>2013-10-20T08:52:56Z</time>
      </trkpt>
      <trkpt lat="46.00257" lon="1.21589">
        <ele>420</ele>
        <time>2013-10-20T08:52:58Z</time>
      </trkpt>
      <trkpt lat="46.00259" lon="1.21586">
        <ele>420</ele>
        <time>2013-10-20T08:53:04Z</time>
      </trkpt>
      <trkpt lat="46.00265" lon="1.21561">
        <ele>423.8</ele>
        <time>2013-10-20T08:53:25Z</time>
      </trkpt>
      <trkpt lat="46.00264" lon="1.21558">
        <ele>423.8</ele>
        <time>2013-10-20T08:53:27Z</time>
      </trkpt>
      <trkpt lat="46.00265" lon="1.21561">
        <ele>423.8</ele>
        <time>2013-10-20T08:53:36Z</time>
      </trkpt>
      <trkpt lat="46.00238" lon="1.2151">
        <ele>432</ele>
        <time>2013-10-20T08:54:33Z</time>
      </trkpt>
      <trkpt lat="46.00238" lon="1.2151">
        <ele>432</ele>
        <time>2013-10-20T08:54:41Z</time>
      </trkpt>
      <trkpt lat="46.00238" lon="1.2151">
        <ele>432</ele>
        <time>2013-10-20T08:54:42Z</time>
      </trkpt>
      <trkpt lat="46.00235" lon="1.2147">
        <ele>432.3</ele>
        <time>2013-10-20T08:54:48Z</time>
      </trkpt>
      <trkpt lat="46.00235" lon="1.21457">
        <ele>433.4</ele>
        <time>2013-10-20T08:54:52Z</time>
      </trkpt>
      <trkpt lat="46.00235" lon="1.21457">
        <ele>433.4</ele>
        <time>2013-10-20T08:54:58Z</time>
      </trkpt>
      <trkpt lat="46.00229" lon="1.21375">
        <ele>426.9</ele>
        <time>2013-10-20T08:55:26Z</time>
      </trkpt>
      <trkpt lat="46.00243" lon="1.21329">
        <ele>429.4</ele>
        <time>2013-10-20T08:55:37Z</time>
      </trkpt>
      <trkpt lat="46.00245" lon="1.21306">
        <ele>428.4</ele>
        <time>2013-10-20T08:55:45Z</time>
      </trkpt>
      <trkpt lat="46.0025" lon="1.21279">
        <ele>430.4</ele>
        <time>2013-10-20T08:55:57Z</time>
      </trkpt>
      <trkpt lat="46.00256" lon="1.21249">
        <ele>431.8</ele>
        <time>2013-10-20T08:56:07Z</time>
      </trkpt>
      <trkpt lat="46.00259" lon="1.21231">
        <ele>430.5</ele>
        <time>2013-10-20T08:56:15Z</time>
      </trkpt>
      <trkpt lat="46.00259" lon="1.21231">
        <ele>430.5</ele>
        <time>2013-10-20T08:56:20Z</time>
      </trkpt>
      <trkpt lat="46.00259" lon="1.21231">
        <ele>430.5</ele>
        <time>2013-10-20T08:56:21Z</time>
      </trkpt>
      <trkpt lat="46.00263" lon="1.21205">
        <ele>432</ele>
        <time>2013-10-20T08:56:27Z</time>
      </trkpt>
      <trkpt lat="46.00269" lon="1.21184">
        <ele>435.1</ele>
        <time>2013-10-20T08:56:37Z</time>
      </trkpt>
      <trkpt lat="46.00273" lon="1.21159">
        <ele>435.8</ele>
        <time>2013-10-20T08:56:45Z</time>
      </trkpt>
      <trkpt lat="46.0028" lon="1.21129">
        <ele>436.4</ele>
        <time>2013-10-20T08:56:53Z</time>
      </trkpt>
      <trkpt lat="46.00283" lon="1.21118">
        <ele>436</ele>
        <time>2013-10-20T08:56:56Z</time>
      </trkpt>
      <trkpt lat="46.00293" lon="1.21087">
        <ele>435.7</ele>
        <time>2013-10-20T08:57:04Z</time>
      </trkpt>
      <trkpt lat="46.00304" lon="1.21054">
        <ele>435.1</ele>
        <time>2013-10-20T08:57:12Z</time>
      </trkpt>
      <trkpt lat="46.00329" lon="1.21013">
        <ele>434.2</ele>
        <time>2013-10-20T08:57:18Z</time>
      </trkpt>
      <trkpt lat="46.00344" lon="1.20993">
        <ele>433.7</ele>
        <time>2013-10-20T08:57:21Z</time>
      </trkpt>
      <trkpt lat="46.00377" lon="1.20961">
        <ele>434.5</ele>
        <time>2013-10-20T08:57:27Z</time>
      </trkpt>
      <trkpt lat="46.00403" lon="1.20934">
        <ele>433.9</ele>
        <time>2013-10-20T08:57:32Z</time>
      </trkpt>
      <trkpt lat="46.00428" lon="1.20901">
        <ele>433.5</ele>
        <time>2013-10-20T08:57:38Z</time>
      </trkpt>
      <trkpt lat="46.00449" lon="1.20858">
        <ele>432.3</ele>
        <time>2013-10-20T08:57:44Z</time>
      </trkpt>
      <trkpt lat="46.00477" lon="1.20828">
        <ele>430.3</ele>
        <time>2013-10-20T08:57:50Z</time>
      </trkpt>
      <trkpt lat="46.00498" lon="1.20792">
        <ele>429.9</ele>
        <time>2013-10-20T08:57:56Z</time>
      </trkpt>
      <trkpt lat="46.00512" lon="1.20756">
        <ele>429.4</ele>
        <time>2013-10-20T08:58:03Z</time>
      </trkpt>
      <trkpt lat="46.0055" lon="1.20701">
        <ele>428.1</ele>
        <time>2013-10-20T08:58:11Z</time>
      </trkpt>
      <trkpt lat="46.00589" lon="1.20638">
        <ele>426.6</ele>
        <time>2013-10-20T08:58:16Z</time>
      </trkpt>
      <trkpt lat="46.00633" lon="1.20589">
        <ele>423.3</ele>
        <time>2013-10-20T08:58:22Z</time>
      </trkpt>
      <trkpt lat="46.00668" lon="1.20549">
        <ele>418.1</ele>
        <time>2013-10-20T08:58:28Z</time>
      </trkpt>
      <trkpt lat="46.0069" lon="1.20542">
        <ele>414.9</ele>
        <time>2013-10-20T08:58:31Z</time>
      </trkpt>
      <trkpt lat="46.00719" lon="1.20525">
        <ele>413.1</ele>
        <time>2013-10-20T08:58:36Z</time>
      </trkpt>
      <trkpt lat="46.00749" lon="1.20489">
        <ele>410.8</ele>
        <time>2013-10-20T08:58:42Z</time>
      </trkpt>
      <trkpt lat="46.00775" lon="1.2046">
        <ele>409.2</ele>
        <time>2013-10-20T08:58:47Z</time>
      </trkpt>
      <trkpt lat="46.00802" lon="1.20433">
        <ele>406.1</ele>
        <time>2013-10-20T08:58:52Z</time>
      </trkpt>
      <trkpt lat="46.00807" lon="1.20429">
        <ele>405.4</ele>
        <time>2013-10-20T08:58:54Z</time>
      </trkpt>
      <trkpt lat="46.00812" lon="1.20427">
        <ele>404.3</ele>
        <time>2013-10-20T08:59:00Z</time>
      </trkpt>
      <trkpt lat="46.00835" lon="1.20409">
        <ele>401.2</ele>
        <time>2013-10-20T09:00:10Z</time>
      </trkpt>
      <trkpt lat="46.00855" lon="1.2039">
        <ele>400.5</ele>
        <time>2013-10-20T09:00:15Z</time>
      </trkpt>
      <trkpt lat="46.0088" lon="1.20365">
        <ele>398.8</ele>
        <time>2013-10-20T09:00:21Z</time>
      </trkpt>
      <trkpt lat="46.00908" lon="1.2034">
        <ele>399</ele>
        <time>2013-10-20T09:00:28Z</time>
      </trkpt>
      <trkpt lat="46.00922" lon="1.20324">
        <ele>399.6</ele>
        <time>2013-10-20T09:00:34Z</time>
      </trkpt>
      <trkpt lat="46.00924" lon="1.20322">
        <ele>399.8</ele>
        <time>2013-10-20T09:00:36Z</time>
      </trkpt>
      <trkpt lat="46.00925" lon="1.20321">
        <ele>399.8</ele>
        <time>2013-10-20T09:00:44Z</time>
      </trkpt>
      <trkpt lat="46.00989" lon="1.20276">
        <ele>410.7</ele>
        <time>2013-10-20T09:01:40Z</time>
      </trkpt>
      <trkpt lat="46.00992" lon="1.20275">
        <ele>410.3</ele>
        <time>2013-10-20T09:01:41Z</time>
      </trkpt>
      <trkpt lat="46.00994" lon="1.20269">
        <ele>411</ele>
        <time>2013-10-20T09:01:48Z</time>
      </trkpt>
      <trkpt lat="46.01018" lon="1.20251">
        <ele>412.6</ele>
        <time>2013-10-20T09:02:53Z</time>
      </trkpt>
      <trkpt lat="46.01038" lon="1.2023">
        <ele>413.3</ele>
        <time>2013-10-20T09:03:00Z</time>
      </trkpt>
      <trkpt lat="46.01064" lon="1.20201">
        <ele>411.3</ele>
        <time>2013-10-20T09:03:06Z</time>
      </trkpt>
      <trkpt lat="46.01079" lon="1.20169">
        <ele>411.9</ele>
        <time>2013-10-20T09:03:12Z</time>
      </trkpt>
      <trkpt lat="46.01093" lon="1.2014">
        <ele>414.2</ele>
        <time>2013-10-20T09:03:19Z</time>
      </trkpt>
      <trkpt lat="46.01093" lon="1.2014">
        <ele>414.2</ele>
        <time>2013-10-20T09:03:25Z</time>
      </trkpt>
      <trkpt lat="46.01093" lon="1.2014">
        <ele>414.2</ele>
        <time>2013-10-20T09:03:26Z</time>
      </trkpt>
      <trkpt lat="46.01119" lon="1.20089">
        <ele>410.7</ele>
        <time>2013-10-20T09:03:38Z</time>
      </trkpt>
      <trkpt lat="46.01137" lon="1.2006">
        <ele>409.6</ele>
        <time>2013-10-20T09:03:48Z</time>
      </trkpt>
      <trkpt lat="46.01154" lon="1.20034">
        <ele>407.3</ele>
        <time>2013-10-20T09:03:55Z</time>
      </trkpt>
      <trkpt lat="46.01175" lon="1.20008">
        <ele>407.7</ele>
        <time>2013-10-20T09:04:01Z</time>
      </trkpt>
      <trkpt lat="46.01179" lon="1.19996">
        <ele>406.6</ele>
        <time>2013-10-20T09:04:06Z</time>
      </trkpt>
      <trkpt lat="46.01197" lon="1.19944">
        <ele>409.2</ele>
        <time>2013-10-20T09:04:18Z</time>
      </trkpt>
      <trkpt lat="46.01201" lon="1.19932">
        <ele>409.1</ele>
        <time>2013-10-20T09:04:21Z</time>
      </trkpt>
      <trkpt lat="46.01207" lon="1.19911">
        <ele>410</ele>
        <time>2013-10-20T09:04:27Z</time>
      </trkpt>
      <trkpt lat="46.01214" lon="1.19875">
        <ele>409.8</ele>
        <time>2013-10-20T09:04:36Z</time>
      </trkpt>
      <trkpt lat="46.01221" lon="1.19855">
        <ele>410.7</ele>
        <time>2013-10-20T09:04:42Z</time>
      </trkpt>
      <trkpt lat="46.01236" lon="1.19826">
        <ele>411.5</ele>
        <time>2013-10-20T09:04:50Z</time>
      </trkpt>
      <trkpt lat="46.01261" lon="1.19795">
        <ele>412.4</ele>
        <time>2013-10-20T09:05:00Z</time>
      </trkpt>
      <trkpt lat="46.01281" lon="1.19781">
        <ele>412.4</ele>
        <time>2013-10-20T09:05:09Z</time>
      </trkpt>
      <trkpt lat="46.01309" lon="1.19769">
        <ele>415.3</ele>
        <time>2013-10-20T09:05:20Z</time>
      </trkpt>
      <trkpt lat="46.01327" lon="1.19756">
        <ele>416.4</ele>
        <time>2013-10-20T09:05:27Z</time>
      </trkpt>
      <trkpt lat="46.01346" lon="1.19736">
        <ele>416.7</ele>
        <time>2013-10-20T09:05:37Z</time>
      </trkpt>
      <trkpt lat="46.01371" lon="1.19721">
        <ele>413.1</ele>
        <time>2013-10-20T09:05:45Z</time>
      </trkpt>
      <trkpt lat="46.01389" lon="1.197">
        <ele>416.3</ele>
        <time>2013-10-20T09:05:52Z</time>
      </trkpt>
      <trkpt lat="46.01394" lon="1.19673">
        <ele>416.4</ele>
        <time>2013-10-20T09:05:59Z</time>
      </trkpt>
      <trkpt lat="46.01398" lon="1.1965">
        <ele>415.6</ele>
        <time>2013-10-20T09:06:05Z</time>
      </trkpt>
      <trkpt lat="46.01406" lon="1.19618">
        <ele>417.1</ele>
        <time>2013-10-20T09:06:12Z</time>
      </trkpt>
      <trkpt lat="46.01418" lon="1.19591">
        <ele>417.2</ele>
        <time>2013-10-20T09:06:18Z</time>
      </trkpt>
      <trkpt lat="46.01423" lon="1.1958">
        <ele>417.6</ele>
        <time>2013-10-20T09:06:21Z</time>
      </trkpt>
      <trkpt lat="46.01426" lon="1.19573">
        <ele>418.1</ele>
        <time>2013-10-20T09:06:24Z</time>
      </trkpt>
      <trkpt lat="46.01435" lon="1.19551">
        <ele>419.6</ele>
        <time>2013-10-20T09:06:33Z</time>
      </trkpt>
      <trkpt lat="46.01444" lon="1.19528">
        <ele>420.4</ele>
        <time>2013-10-20T09:06:43Z</time>
      </trkpt>
      <trkpt lat="46.01448" lon="1.19517">
        <ele>420.9</ele>
        <time>2013-10-20T09:06:48Z</time>
      </trkpt>
      <trkpt lat="46.0146" lon="1.19494">
        <ele>422</ele>
        <time>2013-10-20T09:06:59Z</time>
      </trkpt>
      <trkpt lat="46.01471" lon="1.19472">
        <ele>423.5</ele>
        <time>2013-10-20T09:07:09Z</time>
      </trkpt>
      <trkpt lat="46.01473" lon="1.19442">
        <ele>424.7</ele>
        <time>2013-10-20T09:07:21Z</time>
      </trkpt>
      <trkpt lat="46.01475" lon="1.19418">
        <ele>425.9</ele>
        <time>2013-10-20T09:07:32Z</time>
      </trkpt>
      <trkpt lat="46.01473" lon="1.19387">
        <ele>425.3</ele>
        <time>2013-10-20T09:07:45Z</time>
      </trkpt>
      <trkpt lat="46.01476" lon="1.19353">
        <ele>425.2</ele>
        <time>2013-10-20T09:07:54Z</time>
      </trkpt>
      <trkpt lat="46.01477" lon="1.19333">
        <ele>427.9</ele>
        <time>2013-10-20T09:08:02Z</time>
      </trkpt>
      <trkpt lat="46.01481" lon="1.1929">
        <ele>431.2</ele>
        <time>2013-10-20T09:08:13Z</time>
      </trkpt>
      <trkpt lat="46.01482" lon="1.19255">
        <ele>430.1</ele>
        <time>2013-10-20T09:08:19Z</time>
      </trkpt>
      <trkpt lat="46.01494" lon="1.19209">
        <ele>431.1</ele>
        <time>2013-10-20T09:08:25Z</time>
      </trkpt>
      <trkpt lat="46.01503" lon="1.19175">
        <ele>430.6</ele>
        <time>2013-10-20T09:08:31Z</time>
      </trkpt>
      <trkpt lat="46.0151" lon="1.19138">
        <ele>429.7</ele>
        <time>2013-10-20T09:08:37Z</time>
      </trkpt>
      <trkpt lat="46.01523" lon="1.1908">
        <ele>428.7</ele>
        <time>2013-10-20T09:08:45Z</time>
      </trkpt>
      <trkpt lat="46.01539" lon="1.19031">
        <ele>426.2</ele>
        <time>2013-10-20T09:08:52Z</time>
      </trkpt>
      <trkpt lat="46.01545" lon="1.19011">
        <ele>426.6</ele>
        <time>2013-10-20T09:08:57Z</time>
      </trkpt>
      <trkpt lat="46.0155" lon="1.18977">
        <ele>425.8</ele>
        <time>2013-10-20T09:09:02Z</time>
      </trkpt>
      <trkpt lat="46.01551" lon="1.18954">
        <ele>424.9</ele>
        <time>2013-10-20T09:09:08Z</time>
      </trkpt>
      <trkpt lat="46.01556" lon="1.1892">
        <ele>423.2</ele>
        <time>2013-10-20T09:09:15Z</time>
      </trkpt>
      <trkpt lat="46.01557" lon="1.18875">
        <ele>421.8</ele>
        <time>2013-10-20T09:09:23Z</time>
      </trkpt>
      <trkpt lat="46.01549" lon="1.18832">
        <ele>420.4</ele>
        <time>2013-10-20T09:09:28Z</time>
      </trkpt>
      <trkpt lat="46.01543" lon="1.18766">
        <ele>417.6</ele>
        <time>2013-10-20T09:09:34Z</time>
      </trkpt>
      <trkpt lat="46.01535" lon="1.18708">
        <ele>414.9</ele>
        <time>2013-10-20T09:09:40Z</time>
      </trkpt>
      <trkpt lat="46.01532" lon="1.18684">
        <ele>409.5</ele>
        <time>2013-10-20T09:09:49Z</time>
      </trkpt>
      <trkpt lat="46.01507" lon="1.18661">
        <ele>404.6</ele>
        <time>2013-10-20T09:10:01Z</time>
      </trkpt>
      <trkpt lat="46.01507" lon="1.18661">
        <ele>404.6</ele>
        <time>2013-10-20T09:10:08Z</time>
      </trkpt>
      <trkpt lat="46.01507" lon="1.18661">
        <ele>404.6</ele>
        <time>2013-10-20T09:10:09Z</time>
      </trkpt>
      <trkpt lat="46.0149" lon="1.18655">
        <ele>400</ele>
        <time>2013-10-20T09:11:15Z</time>
      </trkpt>
      <trkpt lat="46.01471" lon="1.18656">
        <ele>398.2</ele>
        <time>2013-10-20T09:11:24Z</time>
      </trkpt>
      <trkpt lat="46.01459" lon="1.18659">
        <ele>398.7</ele>
        <time>2013-10-20T09:11:32Z</time>
      </trkpt>
      <trkpt lat="46.01455" lon="1.18662">
        <ele>398.1</ele>
        <time>2013-10-20T09:11:41Z</time>
      </trkpt>
      <trkpt lat="46.01399" lon="1.18703">
        <ele>400.9</ele>
        <time>2013-10-20T09:13:20Z</time>
      </trkpt>
      <trkpt lat="46.01399" lon="1.18703">
        <ele>400.9</ele>
        <time>2013-10-20T09:13:26Z</time>
      </trkpt>
      <trkpt lat="46.01395" lon="1.18706">
        <ele>403</ele>
        <time>2013-10-20T09:13:27Z</time>
      </trkpt>
      <trkpt lat="46.01303" lon="1.18719">
        <ele>421.5</ele>
        <time>2013-10-20T09:15:54Z</time>
      </trkpt>
      <trkpt lat="46.01303" lon="1.18719">
        <ele>421.5</ele>
        <time>2013-10-20T09:16:00Z</time>
      </trkpt>
      <trkpt lat="46.01303" lon="1.18719">
        <ele>421.5</ele>
        <time>2013-10-20T09:16:01Z</time>
      </trkpt>
      <trkpt lat="46.01269" lon="1.1872">
        <ele>420.3</ele>
        <time>2013-10-20T09:19:07Z</time>
      </trkpt>
      <trkpt lat="46.0125" lon="1.18722">
        <ele>421.3</ele>
        <time>2013-10-20T09:19:13Z</time>
      </trkpt>
      <trkpt lat="46.0123" lon="1.18728">
        <ele>421.2</ele>
        <time>2013-10-20T09:19:19Z</time>
      </trkpt>
      <trkpt lat="46.01218" lon="1.18729">
        <ele>421.8</ele>
        <time>2013-10-20T09:19:24Z</time>
      </trkpt>
      <trkpt lat="46.01218" lon="1.18729">
        <ele>421.8</ele>
        <time>2013-10-20T09:19:32Z</time>
      </trkpt>
      <trkpt lat="46.01218" lon="1.18729">
        <ele>421.8</ele>
        <time>2013-10-20T09:19:33Z</time>
      </trkpt>
      <trkpt lat="46.01175" lon="1.18724">
        <ele>428.9</ele>
        <time>2013-10-20T09:20:00Z</time>
      </trkpt>
      <trkpt lat="46.01175" lon="1.18724">
        <ele>428.9</ele>
        <time>2013-10-20T09:20:07Z</time>
      </trkpt>
      <trkpt lat="46.01175" lon="1.18724">
        <ele>428.9</ele>
        <time>2013-10-20T09:20:08Z</time>
      </trkpt>
      <trkpt lat="46.01158" lon="1.18721">
        <ele>432.9</ele>
        <time>2013-10-20T09:20:18Z</time>
      </trkpt>
      <trkpt lat="46.01158" lon="1.18721">
        <ele>432.9</ele>
        <time>2013-10-20T09:20:25Z</time>
      </trkpt>
      <trkpt lat="46.01158" lon="1.18721">
        <ele>432.9</ele>
        <time>2013-10-20T09:20:26Z</time>
      </trkpt>
      <trkpt lat="46.01127" lon="1.18722">
        <ele>442.5</ele>
        <time>2013-10-20T09:20:53Z</time>
      </trkpt>
      <trkpt lat="46.01115" lon="1.18717">
        <ele>442.9</ele>
        <time>2013-10-20T09:21:00Z</time>
      </trkpt>
      <trkpt lat="46.01095" lon="1.18713">
        <ele>444.3</ele>
        <time>2013-10-20T09:21:12Z</time>
      </trkpt>
      <trkpt lat="46.01078" lon="1.18712">
        <ele>445.8</ele>
        <time>2013-10-20T09:21:20Z</time>
      </trkpt>
      <trkpt lat="46.01057" lon="1.18708">
        <ele>448.5</ele>
        <time>2013-10-20T09:21:32Z</time>
      </trkpt>
      <trkpt lat="46.01043" lon="1.18705">
        <ele>446.8</ele>
        <time>2013-10-20T09:21:40Z</time>
      </trkpt>
      <trkpt lat="46.01037" lon="1.18729">
        <ele>445.2</ele>
        <time>2013-10-20T09:21:54Z</time>
      </trkpt>
      <trkpt lat="46.01031" lon="1.18745">
        <ele>446.1</ele>
        <time>2013-10-20T09:22:01Z</time>
      </trkpt>
      <trkpt lat="46.01023" lon="1.18773">
        <ele>445.7</ele>
        <time>2013-10-20T09:22:13Z</time>
      </trkpt>
      <trkpt lat="46.01011" lon="1.18789">
        <ele>446.9</ele>
        <time>2013-10-20T09:22:26Z</time>
      </trkpt>
      <trkpt lat="46.00987" lon="1.18794">
        <ele>446.8</ele>
        <time>2013-10-20T09:22:42Z</time>
      </trkpt>
      <trkpt lat="46.00986" lon="1.18795">
        <ele>447.1</ele>
        <time>2013-10-20T09:22:50Z</time>
      </trkpt>
      <trkpt lat="46.00955" lon="1.18799">
        <ele>450.1</ele>
        <time>2013-10-20T09:23:15Z</time>
      </trkpt>
      <trkpt lat="46.00938" lon="1.18801">
        <ele>451.5</ele>
        <time>2013-10-20T09:23:23Z</time>
      </trkpt>
      <trkpt lat="46.00919" lon="1.18808">
        <ele>453.7</ele>
        <time>2013-10-20T09:23:30Z</time>
      </trkpt>
      <trkpt lat="46.00907" lon="1.1881">
        <ele>455.1</ele>
        <time>2013-10-20T09:23:35Z</time>
      </trkpt>
      <trkpt lat="46.00882" lon="1.18805">
        <ele>455.4</ele>
        <time>2013-10-20T09:23:43Z</time>
      </trkpt>
      <trkpt lat="46.00861" lon="1.18804">
        <ele>454.5</ele>
        <time>2013-10-20T09:23:49Z</time>
      </trkpt>
      <trkpt lat="46.00857" lon="1.18825">
        <ele>454.5</ele>
        <time>2013-10-20T09:23:56Z</time>
      </trkpt>
      <trkpt lat="46.00854" lon="1.18848">
        <ele>454.9</ele>
        <time>2013-10-20T09:24:06Z</time>
      </trkpt>
      <trkpt lat="46.00854" lon="1.18848">
        <ele>454.9</ele>
        <time>2013-10-20T09:24:13Z</time>
      </trkpt>
      <trkpt lat="46.00854" lon="1.18848">
        <ele>454.9</ele>
        <time>2013-10-20T09:24:14Z</time>
      </trkpt>
      <trkpt lat="46.0085" lon="1.18873">
        <ele>456</ele>
        <time>2013-10-20T09:24:45Z</time>
      </trkpt>
      <trkpt lat="46.00846" lon="1.189">
        <ele>460.1</ele>
        <time>2013-10-20T09:24:56Z</time>
      </trkpt>
      <trkpt lat="46.00841" lon="1.18924">
        <ele>461.5</ele>
        <time>2013-10-20T09:25:05Z</time>
      </trkpt>
      <trkpt lat="46.00837" lon="1.1896">
        <ele>461.4</ele>
        <time>2013-10-20T09:25:14Z</time>
      </trkpt>
      <trkpt lat="46.00833" lon="1.18989">
        <ele>461.4</ele>
        <time>2013-10-20T09:25:21Z</time>
      </trkpt>
      <trkpt lat="46.00829" lon="1.19022">
        <ele>462.1</ele>
        <time>2013-10-20T09:25:28Z</time>
      </trkpt>
      <trkpt lat="46.00821" lon="1.19064">
        <ele>460.7</ele>
        <time>2013-10-20T09:25:34Z</time>
      </trkpt>
      <trkpt lat="46.0081" lon="1.19097">
        <ele>462.2</ele>
        <time>2013-10-20T09:25:40Z</time>
      </trkpt>
      <trkpt lat="46.00794" lon="1.19098">
        <ele>463.3</ele>
        <time>2013-10-20T09:25:47Z</time>
      </trkpt>
      <trkpt lat="46.00784" lon="1.19089">
        <ele>464.1</ele>
        <time>2013-10-20T09:25:53Z</time>
      </trkpt>
      <trkpt lat="46.00772" lon="1.19079">
        <ele>465.6</ele>
        <time>2013-10-20T09:25:59Z</time>
      </trkpt>
      <trkpt lat="46.00753" lon="1.19057">
        <ele>467.2</ele>
        <time>2013-10-20T09:26:08Z</time>
      </trkpt>
      <trkpt lat="46.00753" lon="1.19057">
        <ele>467.2</ele>
        <time>2013-10-20T09:26:14Z</time>
      </trkpt>
      <trkpt lat="46.00753" lon="1.19057">
        <ele>467.2</ele>
        <time>2013-10-20T09:26:15Z</time>
      </trkpt>
      <trkpt lat="46.00709" lon="1.18988">
        <ele>474.2</ele>
        <time>2013-10-20T09:27:24Z</time>
      </trkpt>
      <trkpt lat="46.00684" lon="1.18969">
        <ele>474.6</ele>
        <time>2013-10-20T09:27:35Z</time>
      </trkpt>
      <trkpt lat="46.00675" lon="1.18952">
        <ele>475.4</ele>
        <time>2013-10-20T09:27:40Z</time>
      </trkpt>
      <trkpt lat="46.00665" lon="1.18919">
        <ele>471.7</ele>
        <time>2013-10-20T09:27:50Z</time>
      </trkpt>
      <trkpt lat="46.00642" lon="1.18909">
        <ele>472.3</ele>
        <time>2013-10-20T09:27:59Z</time>
      </trkpt>
      <trkpt lat="46.00633" lon="1.1891">
        <ele>474.1</ele>
        <time>2013-10-20T09:28:13Z</time>
      </trkpt>
      <trkpt lat="46.00613" lon="1.18893">
        <ele>474.4</ele>
        <time>2013-10-20T09:28:25Z</time>
      </trkpt>
      <trkpt lat="46.00593" lon="1.18892">
        <ele>474.2</ele>
        <time>2013-10-20T09:28:31Z</time>
      </trkpt>
      <trkpt lat="46.00547" lon="1.18893">
        <ele>473.8</ele>
        <time>2013-10-20T09:28:41Z</time>
      </trkpt>
      <trkpt lat="46.00534" lon="1.18889">
        <ele>472.8</ele>
        <time>2013-10-20T09:28:46Z</time>
      </trkpt>
      <trkpt lat="46.00529" lon="1.18889">
        <ele>472.6</ele>
        <time>2013-10-20T09:28:48Z</time>
      </trkpt>
      <trkpt lat="46.00527" lon="1.18889">
        <ele>472.4</ele>
        <time>2013-10-20T09:28:54Z</time>
      </trkpt>
      <trkpt lat="46.00494" lon="1.18883">
        <ele>471.7</ele>
        <time>2013-10-20T09:29:07Z</time>
      </trkpt>
      <trkpt lat="46.00469" lon="1.18873">
        <ele>470</ele>
        <time>2013-10-20T09:29:14Z</time>
      </trkpt>
      <trkpt lat="46.00421" lon="1.18882">
        <ele>468.3</ele>
        <time>2013-10-20T09:29:21Z</time>
      </trkpt>
      <trkpt lat="46.00402" lon="1.18872">
        <ele>467.4</ele>
        <time>2013-10-20T09:29:26Z</time>
      </trkpt>
      <trkpt lat="46.00378" lon="1.18847">
        <ele>465.7</ele>
        <time>2013-10-20T09:29:32Z</time>
      </trkpt>
      <trkpt lat="46.00366" lon="1.18828">
        <ele>465.2</ele>
        <time>2013-10-20T09:29:40Z</time>
      </trkpt>
      <trkpt lat="46.00349" lon="1.18806">
        <ele>464.5</ele>
        <time>2013-10-20T09:29:49Z</time>
      </trkpt>
      <trkpt lat="46.00328" lon="1.18794">
        <ele>464.4</ele>
        <time>2013-10-20T09:29:54Z</time>
      </trkpt>
      <trkpt lat="46.0032" lon="1.18794">
        <ele>465.2</ele>
        <time>2013-10-20T09:30:04Z</time>
      </trkpt>
      <trkpt lat="46.00299" lon="1.1879">
        <ele>466.1</ele>
        <time>2013-10-20T09:30:11Z</time>
      </trkpt>
      <trkpt lat="46.00286" lon="1.18785">
        <ele>465.1</ele>
        <time>2013-10-20T09:30:16Z</time>
      </trkpt>
      <trkpt lat="46.0028" lon="1.18765">
        <ele>464.9</ele>
        <time>2013-10-20T09:30:21Z</time>
      </trkpt>
      <trkpt lat="46.00271" lon="1.18741">
        <ele>463.8</ele>
        <time>2013-10-20T09:30:26Z</time>
      </trkpt>
      <trkpt lat="46.00276" lon="1.1871">
        <ele>463.4</ele>
        <time>2013-10-20T09:30:33Z</time>
      </trkpt>
      <trkpt lat="46.00275" lon="1.18679">
        <ele>460.2</ele>
        <time>2013-10-20T09:30:41Z</time>
      </trkpt>
      <trkpt lat="46.00282" lon="1.18658">
        <ele>457.9</ele>
        <time>2013-10-20T09:30:47Z</time>
      </trkpt>
      <trkpt lat="46.00279" lon="1.1863">
        <ele>453.4</ele>
        <time>2013-10-20T09:30:54Z</time>
      </trkpt>
      <trkpt lat="46.00282" lon="1.18624">
        <ele>451</ele>
        <time>2013-10-20T09:30:58Z</time>
      </trkpt>
      <trkpt lat="46.00283" lon="1.1862">
        <ele>450</ele>
        <time>2013-10-20T09:31:05Z</time>
      </trkpt>
      <trkpt lat="46.00275" lon="1.18586">
        <ele>445.9</ele>
        <time>2013-10-20T09:33:35Z</time>
      </trkpt>
      <trkpt lat="46.00267" lon="1.18564">
        <ele>443.9</ele>
        <time>2013-10-20T09:33:40Z</time>
      </trkpt>
      <trkpt lat="46.00277" lon="1.18528">
        <ele>439.9</ele>
        <time>2013-10-20T09:33:47Z</time>
      </trkpt>
      <trkpt lat="46.00287" lon="1.18512">
        <ele>439.2</ele>
        <time>2013-10-20T09:33:50Z</time>
      </trkpt>
      <trkpt lat="46.00308" lon="1.1848">
        <ele>435.8</ele>
        <time>2013-10-20T09:33:56Z</time>
      </trkpt>
      <trkpt lat="46.00317" lon="1.18437">
        <ele>431.4</ele>
        <time>2013-10-20T09:34:02Z</time>
      </trkpt>
      <trkpt lat="46.00319" lon="1.18408">
        <ele>423.5</ele>
        <time>2013-10-20T09:34:08Z</time>
      </trkpt>
      <trkpt lat="46.00325" lon="1.18396">
        <ele>419.4</ele>
        <time>2013-10-20T09:34:15Z</time>
      </trkpt>
      <trkpt lat="46.00342" lon="1.18297">
        <ele>410</ele>
        <time>2013-10-20T09:34:30Z</time>
      </trkpt>
      <trkpt lat="46.00358" lon="1.18262">
        <ele>407.6</ele>
        <time>2013-10-20T09:34:35Z</time>
      </trkpt>
      <trkpt lat="46.00375" lon="1.18229">
        <ele>405.8</ele>
        <time>2013-10-20T09:34:40Z</time>
      </trkpt>
      <trkpt lat="46.0039" lon="1.18205">
        <ele>404</ele>
        <time>2013-10-20T09:34:45Z</time>
      </trkpt>
      <trkpt lat="46.00396" lon="1.18164">
        <ele>401.6</ele>
        <time>2013-10-20T09:34:51Z</time>
      </trkpt>
      <trkpt lat="46.00392" lon="1.18139">
        <ele>400.7</ele>
        <time>2013-10-20T09:34:54Z</time>
      </trkpt>
      <trkpt lat="46.00389" lon="1.18085">
        <ele>398.5</ele>
        <time>2013-10-20T09:35:00Z</time>
      </trkpt>
      <trkpt lat="46.00388" lon="1.18042">
        <ele>397.1</ele>
        <time>2013-10-20T09:35:05Z</time>
      </trkpt>
      <trkpt lat="46.00388" lon="1.17994">
        <ele>395.6</ele>
        <time>2013-10-20T09:35:11Z</time>
      </trkpt>
      <trkpt lat="46.00388" lon="1.17959">
        <ele>394.8</ele>
        <time>2013-10-20T09:35:16Z</time>
      </trkpt>
      <trkpt lat="46.00388" lon="1.17924">
        <ele>394.1</ele>
        <time>2013-10-20T09:35:22Z</time>
      </trkpt>
      <trkpt lat="46.00386" lon="1.17905">
        <ele>393.8</ele>
        <time>2013-10-20T09:35:26Z</time>
      </trkpt>
      <trkpt lat="46.00385" lon="1.17883">
        <ele>393.4</ele>
        <time>2013-10-20T09:35:32Z</time>
      </trkpt>
      <trkpt lat="46.00386" lon="1.17859">
        <ele>393.4</ele>
        <time>2013-10-20T09:35:42Z</time>
      </trkpt>
      <trkpt lat="46.00387" lon="1.17827">
        <ele>392.9</ele>
        <time>2013-10-20T09:35:54Z</time>
      </trkpt>
      <trkpt lat="46.00378" lon="1.17808">
        <ele>392.6</ele>
        <time>2013-10-20T09:36:04Z</time>
      </trkpt>
      <trkpt lat="46.00375" lon="1.17805">
        <ele>392.3</ele>
        <time>2013-10-20T09:36:07Z</time>
      </trkpt>
      <trkpt lat="46.00375" lon="1.17805">
        <ele>392.3</ele>
        <time>2013-10-20T09:36:13Z</time>
      </trkpt>
      <trkpt lat="46.00375" lon="1.17805">
        <ele>331.5</ele>
        <time>2013-10-20T09:36:24Z</time>
      </trkpt>
      <trkpt lat="46.00375" lon="1.17805">
        <ele>331.5</ele>
        <time>2013-10-20T11:03:09Z</time>
      </trkpt>
    </trkseg>
  </trk>
</gpx>